Radiosonde details



Informationen :

Serial : V3010293
Type : Vaisala RS41-SGP
Date of production : 24.07.2023
Frequency : 403.000MHz
Launchsite : Galeao
Nearest town : Rio das Ostras, BR (5km)

Altitude (Max) : 25464m at 2026-09-04 12:50:07
Speed (Max) : 161km/h at altitude 14303m

Average speed : 94km/h
Average ascent rate : 6m/s
Average descent rate : -8m/s
Ascent rate (Max) : 9.8m/s
Descent rate (Max): -18.1m/s

First frame :
PU1XMG-16 at 2026-09-04 11:43:43 at altitude 3527m (OG: 3458m)
Last frame :
PU1XMG-16 at 2026-09-04 13:19:45 at altitude 10821m (OG: 10773m)

Flighttime : 1h36m2s
Ascent time : 1h6m24s
Descent time : 29m38s
Uptime : -
Killtimer : 8h06m

Distance (Straight line distance): 128km

Distance (Route):


Frames : 569


Measurement :

Temperature : -39.4°C
Humidity : 10.0%
Pressure : 254.1hPa


Vertical profile (SkewT) :


Elevation profile :



Receiving stations :


Receiver Frames First received Last received
PU1XMG-16 569 2026-09-04 11:43:43 2026-09-04 13:19:45

Share per receiver :



All frames :


Receiver Date Latitude Longitude Direction Speed Altitude Climb Temperature Humidity Pressure Voltage Killtimer Uptime BKT XDATA
PU1XMG-162026-09-04 13:19:45-22.54592-41.9895677°146km/h10821m-5.2m/s-39.4°C10.0%254.1hPa0V00:00:0000:00:0000:00:00
PU1XMG-162026-09-04 13:15:24-22.56937-42.0884880°144km/h12156m-5.4m/s-50.0°C7.5%208.1hPa0V00:00:0000:00:0000:00:00
PU1XMG-162026-09-04 13:15:09-22.57031-42.0938779°141km/h12231m-6.0m/s-50.7°C7.8%205.8hPa0V00:00:0000:00:0000:00:00
PU1XMG-162026-09-04 13:14:55-22.57134-42.0995581°141km/h12314m-5.5m/s-51.4°C8.2%203.2hPa0V00:00:0000:00:0000:00:00
PU1XMG-162026-09-04 13:14:43-22.57198-42.1037782°142km/h12373m-5.5m/s-51.7°C9.0%201.3hPa0V08:06:0000:00:0000:00:00
PU1XMG-162026-09-04 13:14:36-22.57239-42.1064882°144km/h12411m-5.5m/s-51.9°C9.7%200.1hPa0V08:06:0000:00:0000:00:00
PU1XMG-162026-09-04 13:14:29-22.57277-42.1092383°146km/h12449m-6.0m/s-52.3°C10.0%198.9hPa0V08:06:0000:00:0000:00:00
PU1XMG-162026-09-04 13:14:23-22.57307-42.1115583°141km/h12482m-6.0m/s-52.6°C10.3%198.0hPa0V08:06:0000:00:0000:00:00
PU1XMG-162026-09-04 13:14:18-22.57331-42.1134783°142km/h12511m-5.7m/s-52.9°C10.6%197.1hPa0V08:06:0000:00:0000:00:00
PU1XMG-162026-09-04 13:14:12-22.57358-42.1158284°146km/h12543m-5.8m/s-53.1°C10.8%196.0hPa0V08:06:0000:00:0000:00:00
PU1XMG-162026-09-04 13:14:07-22.57382-42.1178083°144km/h12571m-5.7m/s-53.4°C11.0%195.3hPa0V08:06:0000:00:0000:00:00
PU1XMG-162026-09-04 13:14:01-22.57414-42.1201382°144km/h12605m-6.1m/s-53.7°C11.2%194.3hPa0V08:06:0000:00:0000:00:00
PU1XMG-162026-09-04 13:13:57-22.57440-42.1220883°144km/h12633m-5.7m/s-54.0°C11.2%193.4hPa0V00:00:0000:00:0000:00:00
PU1XMG-162026-09-04 13:13:50-22.57468-42.1244483°146km/h12667m-6.1m/s-54.3°C11.5%192.4hPa0V00:00:0000:00:0000:00:00
PU1XMG-162026-09-04 13:13:45-22.57491-42.1264284°146km/h12695m-5.6m/s-54.6°C11.4%191.5hPa0V00:00:0000:00:0000:00:00
PU1XMG-162026-09-04 13:13:40-22.57510-42.1283986°144km/h12723m-5.4m/s-54.8°C11.2%190.7hPa0V00:00:0000:00:0000:00:00
PU1XMG-162026-09-04 13:13:34-22.57528-42.1307486°144km/h12756m-5.8m/s-55.0°C11.2%189.7hPa0V00:00:0000:00:0000:00:00
PU1XMG-162026-09-04 13:13:29-22.57542-42.1327186°144km/h12784m-6.3m/s-55.1°C11.3%188.9hPa0V00:00:0000:00:0000:00:00
PU1XMG-162026-09-04 13:13:23-22.57562-42.1350786°146km/h12820m-5.6m/s-55.4°C11.5%187.9hPa0V00:00:0000:00:0000:00:00
PU1XMG-162026-09-04 13:13:13-22.57597-42.1394885°146km/h12882m-5.9m/s-55.9°C11.9%186.1hPa0V00:00:0000:00:0000:00:00
PU1XMG-162026-09-04 13:12:31-22.57784-42.1562883°150km/h13120m-5.6m/s-57.6°C13.2%179.2hPa0V00:00:0000:00:0000:00:00
PU1XMG-162026-09-04 13:12:22-22.57836-42.1599782°150km/h13169m-5.8m/s-57.9°C14.0%177.8hPa0V00:00:0000:00:0000:00:00
PU1XMG-162026-09-04 13:12:15-22.57872-42.1623882°148km/h13203m-6.0m/s-58.2°C14.2%176.8hPa0V08:09:0000:00:0000:00:00
PU1XMG-162026-09-04 13:12:10-22.57901-42.1643582°146km/h13231m-6.1m/s-58.5°C14.4%176.1hPa0V08:09:0000:00:0000:00:00
PU1XMG-162026-09-04 13:12:04-22.57934-42.1667383°148km/h13266m-5.7m/s-58.8°C14.4%175.1hPa0V08:09:0000:00:0000:00:00
PU1XMG-162026-09-04 13:11:59-22.57961-42.1691584°148km/h13299m-5.3m/s-59.1°C14.3%174.1hPa0V08:09:0000:00:0000:00:00
PU1XMG-162026-09-04 13:11:53-22.57987-42.1711682°148km/h13327m-5.9m/s-59.3°C14.2%173.4hPa0V08:09:0000:00:0000:00:00
PU1XMG-162026-09-04 13:11:46-22.58038-42.1743281°144km/h13373m-6.2m/s-59.4°C13.5%172.1hPa0V08:09:0000:00:0000:00:00
PU1XMG-162026-09-04 13:11:39-22.58083-42.1770581°146km/h13414m-5.8m/s-59.6°C13.3%171.0hPa0V08:09:0000:00:0000:00:00
PU1XMG-162026-09-04 13:11:33-22.58117-42.1790280°146km/h13443m-6.1m/s-59.7°C13.0%170.2hPa0V08:09:0000:00:0000:00:00
PU1XMG-162026-09-04 13:11:28-22.58153-42.1809879°146km/h13472m-5.9m/s-59.7°C12.8%169.5hPa0V08:09:0000:00:0000:00:00
PU1XMG-162026-09-04 13:11:23-22.58191-42.1829280°144km/h13500m-5.9m/s-59.8°C12.6%168.7hPa0V08:10:0000:00:0000:00:00
PU1XMG-162026-09-04 13:11:18-22.58229-42.1852482°144km/h13535m-6.1m/s-60.0°C12.5%167.7hPa0V08:10:0000:00:0000:00:00
PU1XMG-162026-09-04 13:11:12-22.58259-42.1872181°148km/h13565m-6.2m/s-60.2°C12.7%167.0hPa0V08:10:0000:00:0000:00:00
PU1XMG-162026-09-04 13:11:08-22.58294-42.1892380°151km/h13594m-6.0m/s-60.4°C12.6%166.2hPa0V08:10:0000:00:0000:00:00
PU1XMG-162026-09-04 13:11:02-22.58337-42.1916281°146km/h13630m-5.8m/s-60.7°C12.9%165.2hPa0V08:10:0000:00:0000:00:00
PU1XMG-162026-09-04 13:10:56-22.58373-42.1939782°148km/h13665m-6.0m/s-60.9°C13.0%164.3hPa0V08:10:0000:00:0000:00:00
PU1XMG-162026-09-04 13:10:49-22.58408-42.1964282°153km/h13700m-5.7m/s-61.2°C13.3%163.4hPa0V08:10:0000:00:0000:00:00
PU1XMG-162026-09-04 13:10:43-22.58449-42.1988979°151km/h13735m-6.3m/s-61.5°C13.7%162.5hPa0V08:10:0000:00:0000:00:00
PU1XMG-162026-09-04 13:10:37-22.58493-42.2012780°146km/h13769m-6.1m/s-61.8°C13.9%161.6hPa0V08:10:0000:00:0000:00:00
PU1XMG-162026-09-04 13:10:32-22.58527-42.2032580°151km/h13799m-6.2m/s-62.1°C14.3%160.8hPa0V00:00:0000:00:0000:00:00
PU1XMG-162026-09-04 13:10:27-22.58566-42.2053279°157km/h13828m-5.7m/s-62.3°C14.5%160.0hPa0V00:00:0000:00:0000:00:00
PU1XMG-162026-09-04 13:10:21-22.58617-42.2077978°151km/h13863m-6.2m/s-62.6°C15.0%159.1hPa0V00:00:0000:00:0000:00:00
PU1XMG-162026-09-04 13:10:16-22.58661-42.2097777°150km/h13893m-6.1m/s-62.8°C15.4%158.3hPa0V00:00:0000:00:0000:00:00
PU1XMG-162026-09-04 13:10:11-22.58705-42.2118078°155km/h13922m-6.1m/s-63.0°C15.7%157.6hPa0V00:00:0000:00:0000:00:00
PU1XMG-162026-09-04 13:10:05-22.58758-42.2142877°153km/h13958m-6.2m/s-63.3°C16.0%156.7hPa0V00:00:0000:00:0000:00:00
PU1XMG-162026-09-04 13:10:00-22.58814-42.2166777°151km/h13994m-6.2m/s-63.7°C16.2%155.8hPa0V00:00:0000:00:0000:00:00
PU1XMG-162026-09-04 13:09:54-22.58859-42.2187077°153km/h14024m-6.3m/s-63.9°C16.4%155.1hPa0V00:00:0000:00:0000:00:00
PU1XMG-162026-09-04 13:09:48-22.58915-42.2211976°155km/h14061m-6.3m/s-64.2°C16.4%154.1hPa0V00:00:0000:00:0000:00:00
PU1XMG-162026-09-04 13:09:42-22.58978-42.2236375°151km/h14097m-6.1m/s-64.5°C16.5%153.2hPa0V00:00:0000:00:0000:00:00
PU1XMG-162026-09-04 13:09:38-22.59032-42.2256175°151km/h14127m-6.1m/s-64.8°C16.6%152.5hPa0V00:00:0000:00:0000:00:00
PU1XMG-162026-09-04 13:09:32-22.59097-42.2280374°157km/h14162m-6.3m/s-65.1°C16.5%151.6hPa0V00:00:0000:00:0000:00:00
PU1XMG-162026-09-04 13:09:15-22.59290-42.2343972°151km/h14257m-6.1m/s-65.7°C15.7%149.2hPa0V00:00:0000:00:0000:00:00
PU1XMG-162026-09-04 13:09:09-22.59371-42.2367970°159km/h14292m-6.5m/s-65.9°C15.1%148.3hPa0V00:00:0000:00:0000:00:00
PU1XMG-162026-09-04 13:09:04-22.59460-42.2392369°157km/h14328m-6.1m/s-66.1°C14.8%147.5hPa0V00:00:0000:00:0000:00:00
PU1XMG-162026-09-04 13:08:59-22.59536-42.2411767°153km/h14358m-6.3m/s-66.2°C14.6%146.8hPa0V00:00:0000:00:0000:00:00
PU1XMG-162026-09-04 13:08:52-22.59631-42.2434866°155km/h14395m-6.2m/s-66.5°C14.4%145.9hPa0V00:00:0000:00:0000:00:00
PU1XMG-162026-09-04 13:08:46-22.59732-42.2458265°157km/h14431m-6.4m/s-66.6°C13.8%145.0hPa0V00:00:0000:00:0000:00:00
PU1XMG-162026-09-04 13:08:41-22.59839-42.2480764°151km/h14469m-6.5m/s-66.6°C13.2%144.1hPa0V00:00:0000:00:0000:00:00
PU1XMG-162026-09-04 13:08:36-22.59925-42.2498865°148km/h14499m-5.9m/s-66.7°C13.0%143.4hPa0V00:00:0000:00:0000:00:00
PU1XMG-162026-09-04 13:08:30-22.60008-42.2517465°151km/h14529m-6.3m/s-66.8°C12.8%142.7hPa0V00:00:0000:00:0000:00:00
PU1XMG-162026-09-04 13:08:25-22.60117-42.2539662°151km/h14566m-6.1m/s-66.9°C12.5%141.8hPa0V00:00:0000:00:0000:00:00
PU1XMG-162026-09-04 13:02:56-22.62536-42.34496111°100km/h16851m-7.6m/s-72.5°C7.6%96.7hPa0V00:00:0000:00:0000:00:00
PU1XMG-162026-09-04 13:02:51-22.62494-42.34627109°100km/h16890m-7.9m/s-72.8°C7.6%96.0hPa0V00:00:0000:00:0000:00:00
PU1XMG-162026-09-04 13:02:46-22.62456-42.34752110°93km/h16929m-8.1m/s-73.0°C7.7%95.4hPa0V00:00:0000:00:0000:00:00
PU1XMG-162026-09-04 13:02:40-22.62411-42.34895109°93km/h16977m-8.5m/s-73.2°C7.7%94.6hPa0V00:00:0000:00:0000:00:00
PU1XMG-162026-09-04 13:02:35-22.62378-42.35015106°89km/h17017m-8.4m/s-73.3°C7.6%94.0hPa0V00:00:0000:00:0000:00:00
PU1XMG-162026-09-04 13:02:29-22.62351-42.3516299°91km/h17065m-8.0m/s-73.2°C7.6%93.3hPa0V00:00:0000:00:0000:00:00
PU1XMG-162026-09-04 13:01:59-22.62256-42.35764103°66km/h17303m-8.5m/s-70.7°C5.7%89.5hPa0V08:19:0000:00:0000:00:00
PU1XMG-162026-09-04 13:01:50-22.62228-42.35918100°75km/h17371m-8.5m/s-70.5°C5.2%88.5hPa0V08:19:0000:00:0000:00:00
PU1XMG-162026-09-04 13:01:45-22.62213-42.3604997°84km/h17420m-8.2m/s-70.1°C5.4%87.8hPa0V08:19:0000:00:0000:00:00
PU1XMG-162026-09-04 13:01:39-22.62206-42.3618290°77km/h17471m-7.8m/s-70.1°C5.4%87.0hPa0V08:19:0000:00:0000:00:00
PU1XMG-162026-09-04 13:01:33-22.62210-42.3628188°69km/h17511m-7.8m/s-69.7°C5.0%86.5hPa0V08:19:0000:00:0000:00:00
PU1XMG-162026-09-04 13:01:28-22.62214-42.3637287°64km/h17551m-8.4m/s-69.5°C4.8%85.9hPa0V08:19:0000:00:0000:00:00
PU1XMG-162026-09-04 13:01:23-22.62222-42.3645684°58km/h17593m-8.1m/s-68.4°C4.2%85.3hPa0V08:19:0000:00:0000:00:00
PU1XMG-162026-09-04 13:01:18-22.62232-42.3654482°51km/h17643m-8.3m/s-68.5°C4.2%84.6hPa0V08:19:0000:00:0000:00:00
PU1XMG-162026-09-04 13:01:11-22.62249-42.3662675°55km/h17694m-8.3m/s-68.6°C4.1%83.8hPa0V08:20:0000:00:0000:00:00
PU1XMG-162026-09-04 13:01:06-22.62274-42.3671674°57km/h17745m-8.6m/s-68.9°C4.1%83.2hPa0V08:20:0000:00:0000:00:00
PU1XMG-162026-09-04 13:00:26-22.62450-42.3734362°58km/h18081m-8.7m/s-67.5°C3.4%78.6hPa0V08:20:0000:00:0000:00:00
PU1XMG-162026-09-04 13:00:20-22.62490-42.3742564°58km/h18135m-9.0m/s-67.1°C3.4%77.9hPa0V08:21:0000:00:0000:00:00
PU1XMG-162026-09-04 13:00:14-22.62529-42.3751670°60km/h18189m-9.1m/s-66.6°C3.2%77.2hPa0V08:21:0000:00:0000:00:00
PU1XMG-162026-09-04 13:00:09-22.62552-42.3760983°58km/h18242m-9.1m/s-66.5°C3.2%76.5hPa0V08:21:0000:00:0000:00:00
PU1XMG-162026-09-04 12:59:58-22.62556-42.3774789°51km/h18333m-9.3m/s-65.0°C2.9%75.4hPa0V08:21:0000:00:0000:00:00
PU1XMG-162026-09-04 12:59:53-22.62553-42.3782499°58km/h18379m-9.8m/s-64.2°C2.9%74.8hPa0V08:21:0000:00:0000:00:00
PU1XMG-162026-09-04 12:59:48-22.62537-42.3789797°35km/h18436m-9.4m/s-63.0°C2.5%74.1hPa0V08:21:0000:00:0000:00:00
PU1XMG-162026-09-04 12:59:42-22.62547-42.3794771°46km/h18483m-9.8m/s-62.7°C2.5%73.5hPa0V08:21:0000:00:0000:00:00
PU1XMG-162026-09-04 12:59:37-22.62562-42.3801787°57km/h18530m-9.9m/s-62.5°C2.4%73.0hPa0V08:21:0000:00:0000:00:00
PU1XMG-162026-09-04 12:59:32-22.62555-42.38100100°42km/h18587m-9.7m/s-62.3°C2.2%72.3hPa0V00:00:0000:00:0000:00:00
PU1XMG-162026-09-04 12:58:48-22.62701-42.3853668°42km/h19020m-10.1m/s-61.1°C2.1%67.5hPa0V00:00:0000:00:0000:00:00
PU1XMG-162026-09-04 12:58:42-22.62705-42.38584103°27km/h19070m-10.6m/s-61.3°C2.2%66.9hPa0V00:00:0000:00:0000:00:00
PU1XMG-162026-09-04 12:58:36-22.62708-42.3860943°20km/h19130m-9.5m/s-61.2°C2.3%66.3hPa0V00:00:0000:00:0000:00:00
PU1XMG-162026-09-04 12:58:30-22.62725-42.3865194°31km/h19190m-10.2m/s-61.0°C2.2%65.7hPa0V00:00:0000:00:0000:00:00
PU1XMG-162026-09-04 12:58:24-22.62712-42.38679162°7km/h19250m-10.6m/s-60.7°C2.0%65.0hPa0V00:00:0000:00:0000:00:00
PU1XMG-162026-09-04 12:58:19-22.62719-42.3868233°18km/h19302m-10.2m/s-60.9°C2.1%64.5hPa0V00:00:0000:00:0000:00:00
PU1XMG-162026-09-04 12:56:08-22.62283-42.39066201°20km/h20695m-12.1m/s-62.2°C2.2%51.4hPa0V08:24:0000:00:0000:00:00
PU1XMG-162026-09-04 12:56:02-22.62277-42.3905858°11km/h20763m-11.1m/s-61.5°C1.9%50.9hPa0V00:00:0000:00:0000:00:00
PU1XMG-162026-09-04 12:55:57-22.62268-42.39078173°22km/h20832m-11.3m/s-61.4°C2.0%50.3hPa0V00:00:0000:00:0000:00:00
PU1XMG-162026-09-04 12:55:50-22.62249-42.39061280°13km/h20900m-11.8m/s-61.5°C1.9%49.8hPa0V00:00:0000:00:0000:00:00
PU1XMG-162026-09-04 12:55:45-22.62254-42.39061135°13km/h20968m-11.9m/s-61.7°C2.0%49.2hPa0V00:00:0000:00:0000:00:00
PU1XMG-162026-09-04 12:55:39-22.62230-42.39063209°24km/h21025m-12.4m/s-62.1°C2.1%48.8hPa0V00:00:0000:00:0000:00:00
PU1XMG-162026-09-04 12:55:33-22.62220-42.3904916°9km/h21096m-11.1m/s-62.3°C2.3%48.2hPa0V00:00:0000:00:0000:00:00
PU1XMG-162026-09-04 12:55:28-22.62218-42.39072145°18km/h21165m-11.8m/s-61.9°C2.3%47.7hPa0V00:00:0000:00:0000:00:00
PU1XMG-162026-09-04 12:55:21-22.62202-42.39053288°20km/h21248m-11.4m/s-60.2°C1.9%47.0hPa0V00:00:0000:00:0000:00:00
PU1XMG-162026-09-04 12:52:40-22.62052-42.38783335°13km/h23310m-14.2m/s-57.4°C1.7%33.9hPa0V00:00:0000:00:0000:00:00
PU1XMG-162026-09-04 12:52:35-22.62075-42.3878925°15km/h23394m-14.0m/s-57.2°C1.6%33.4hPa0V00:00:0000:00:0000:00:00
PU1XMG-162026-09-04 12:52:28-22.62095-42.38783319°27km/h23476m-14.4m/s-57.1°C1.5%33.0hPa0V00:00:0000:00:0000:00:00
PU1XMG-162026-09-04 12:52:22-22.62141-42.38763360°33km/h23562m-14.6m/s-56.9°C1.6%32.5hPa0V00:00:0000:00:0000:00:00
PU1XMG-162026-09-04 12:52:17-22.62173-42.38756332°29km/h23632m-14.2m/s-57.2°C1.6%32.2hPa0V00:00:0000:00:0000:00:00
PU1XMG-162026-09-04 12:52:10-22.62231-42.38727345°31km/h23731m-14.4m/s-57.7°C1.7%31.7hPa0V00:00:0000:00:0000:00:00
PU1XMG-162026-09-04 12:51:59-22.62285-42.38684346°18km/h23903m-14.3m/s-57.4°C1.8%30.8hPa0V00:00:0000:00:0000:00:00
PU1XMG-162026-09-04 12:51:52-22.62292-42.38684282°4km/h23989m-14.6m/s-56.8°C1.7%30.4hPa0V00:00:0000:00:0000:00:00
PU1XMG-162026-09-04 12:51:47-22.62306-42.3868010°16km/h24076m-15.1m/s-55.5°C1.6%30.0hPa0V00:00:0000:00:0000:00:00
PU1XMG-162026-09-04 12:51:04-22.62364-42.3859421°7km/h24695m-14.5m/s-54.7°C1.4%27.2hPa0V00:00:0000:00:0000:00:00
PU1XMG-162026-09-04 12:50:49-22.62388-42.3856286°5km/h24905m-18.1m/s-55.3°C1.5%26.3hPa0V00:00:0000:00:0000:00:00
PU1XMG-162026-09-04 12:50:16-22.62371-42.38551154°20km/h25379m-15.3m/s-54.6°C1.4%24.4hPa0V00:00:0000:00:0000:00:00
PU1XMG-162026-09-04 12:50:07-22.62353-42.38575128°2km/h25464m5.6m/s-53.7°C1.3%24.1hPa0V00:00:0000:00:0000:00:00
PU1XMG-162026-09-04 12:49:59-22.62348-42.38580244°4km/h25415m6.0m/s-54.3°C1.3%24.2hPa0V00:00:0000:00:0000:00:00
PU1XMG-162026-09-04 12:49:53-22.62350-42.38575244°4km/h25369m7.5m/s-55.1°C1.4%24.4hPa0V00:00:0000:00:0000:00:00
PU1XMG-162026-09-04 12:49:48-22.62339-42.38568191°16km/h25337m8.8m/s-55.2°C1.4%24.5hPa0V00:00:0000:00:0000:00:00
PU1XMG-162026-09-04 12:49:41-22.62319-42.38562195°5km/h25299m5.8m/s-55.2°C1.5%24.7hPa0V00:00:0000:00:0000:00:00
PU1XMG-162026-09-04 12:49:36-22.62321-42.38552296°2km/h25261m5.4m/s-55.0°C1.4%24.8hPa0V00:00:0000:00:0000:00:00
PU1XMG-162026-09-04 12:49:28-22.62313-42.38551129°9km/h25216m5.4m/s-55.3°C1.5%25.0hPa0V00:00:0000:00:0000:00:00
PU1XMG-162026-09-04 12:49:20-22.62321-42.38562277°4km/h25159m7.0m/s-55.6°C1.5%25.2hPa0V00:00:0000:00:0000:00:00
PU1XMG-162026-09-04 12:49:11-22.62313-42.38542293°9km/h25109m5.8m/s-55.6°C1.5%25.4hPa0V00:00:0000:00:0000:00:00
PU1XMG-162026-09-04 12:49:05-22.62313-42.38528186°5km/h25074m6.4m/s-55.7°C1.6%25.6hPa0V00:00:0000:00:0000:00:00
PU1XMG-162026-09-04 12:48:59-22.62314-42.38525228°2km/h25031m4.6m/s-55.7°C1.5%25.8hPa0V00:00:0000:00:0000:00:00
PU1XMG-162026-09-04 12:48:52-22.62312-42.38517257°5km/h24992m7.9m/s-55.6°C1.5%25.9hPa0V00:00:0000:00:0000:00:00
PU1XMG-162026-09-04 12:47:39-22.62398-42.38360303°22km/h24535m7.4m/s-54.4°C1.4%27.8hPa0V00:00:0000:00:0000:00:00
PU1XMG-162026-09-04 12:47:30-22.62416-42.38328323°11km/h24486m6.1m/s-54.3°C1.4%28.1hPa0V00:00:0000:00:0000:00:00
PU1XMG-162026-09-04 12:47:24-22.62424-42.38312285°20km/h24448m6.3m/s-54.6°C1.4%28.2hPa0V00:00:0000:00:0000:00:00
PU1XMG-162026-09-04 12:47:19-22.62427-42.38285291°7km/h24410m6.6m/s-54.7°C1.4%28.4hPa0V00:00:0000:00:0000:00:00
PU1XMG-162026-09-04 12:47:13-22.62432-42.38284335°9km/h24372m6.9m/s-54.8°C1.4%28.6hPa0V00:00:0000:00:0000:00:00
PU1XMG-162026-09-04 12:47:08-22.62440-42.38272302°13km/h24339m5.9m/s-55.3°C1.5%28.7hPa0V00:00:0000:00:0000:00:00
PU1XMG-162026-09-04 12:47:02-22.62440-42.3826936°5km/h24306m6.6m/s-55.1°C1.5%28.9hPa0V00:00:0000:00:0000:00:00
PU1XMG-162026-09-04 12:46:56-22.62450-42.38272329°11km/h24267m6.3m/s-55.3°C1.4%29.0hPa0V00:00:0000:00:0000:00:00
PU1XMG-162026-09-04 12:46:47-22.62471-42.3825615km/h24210m7.4m/s-55.1°C1.5%29.3hPa0V00:00:0000:00:0000:00:00
PU1XMG-162026-09-04 12:46:41-22.62493-42.38251319°11km/h24172m7.1m/s-55.2°C1.5%29.5hPa0V00:00:0000:00:0000:00:00
PU1XMG-162026-09-04 12:46:35-22.62509-42.3824517°11km/h24126m5.7m/s-55.0°C1.4%29.7hPa0V00:00:0000:00:0000:00:00
PU1XMG-162026-09-04 12:45:55-22.62595-42.38241328°15km/h23877m7.5m/s-57.1°C1.6%30.9hPa0V00:00:0000:00:0000:00:00
PU1XMG-162026-09-04 12:45:49-22.62619-42.38223315°16km/h23831m5.4m/s-57.1°C1.6%31.1hPa0V00:00:0000:00:0000:00:00
PU1XMG-162026-09-04 12:45:30-22.62724-42.38156324°35km/h23710m8.0m/s-57.1°C1.7%31.7hPa0V00:00:0000:00:0000:00:00
PU1XMG-162026-09-04 12:45:20-22.62800-42.38122338°33km/h23645m5.7m/s-56.9°C1.6%32.1hPa0V00:00:0000:00:0000:00:00
PU1XMG-162026-09-04 12:45:14-22.62844-42.38103343°27km/h23606m5.7m/s-56.7°C1.6%32.3hPa0V00:00:0000:00:0000:00:00
PU1XMG-162026-09-04 12:44:51-22.63015-42.38046348°24km/h23461m6.3m/s-56.4°C1.5%33.0hPa0V00:00:0000:00:0000:00:00
PU1XMG-162026-09-04 12:44:46-22.63045-42.38032347°26km/h23429m5.1m/s-56.6°C1.6%33.2hPa0V00:00:0000:00:0000:00:00
PU1XMG-162026-09-04 12:44:31-22.63111-42.3802511km/h23336m8.2m/s-56.7°C1.6%33.7hPa0V00:00:0000:00:0000:00:00
PU1XMG-162026-09-04 12:43:31-22.63269-42.38068348°18km/h22972m4.4m/s-56.8°C1.5%35.7hPa0V00:00:0000:00:0000:00:00
PU1XMG-162026-09-04 12:42:41-22.63332-42.38063336°9km/h22667m4.8m/s-57.5°C1.6%37.5hPa0V00:00:0000:00:0000:00:00
PU1XMG-162026-09-04 12:42:33-22.63331-42.38048265°11km/h22613m6.3m/s-57.8°C1.6%37.8hPa0V00:00:0000:00:0000:00:00
PU1XMG-162026-09-04 12:42:21-22.63323-42.38012270°11km/h22537m4.4m/s-57.7°C1.6%38.2hPa0V00:00:0000:00:0000:00:00
PU1XMG-162026-09-04 12:41:36-22.63349-42.37956184°7km/h22266m4.9m/s-58.7°C1.6%39.9hPa0V00:00:0000:00:0000:00:00
PU1XMG-162026-09-04 12:41:30-22.63338-42.37958183°5km/h22235m5.3m/s-58.8°C1.7%40.1hPa0V00:00:0000:00:0000:00:00
PU1XMG-162026-09-04 12:41:24-22.63340-42.3796221°9km/h22196m9.0m/s-59.0°C1.7%40.3hPa0V00:00:0000:00:0000:00:00
PU1XMG-162026-09-04 12:41:19-22.63350-42.3796536°9km/h22163m7.3m/s-59.2°C1.7%40.6hPa0V00:00:0000:00:0000:00:00
PU1XMG-162026-09-04 12:41:04-22.63358-42.37976105°5km/h22063m5.2m/s-59.8°C1.8%41.2hPa0V00:00:0000:00:0000:00:00
PU1XMG-162026-09-04 12:40:58-22.63351-42.37980138°9km/h22026m4.5m/s-59.9°C1.8%41.5hPa0V00:00:0000:00:0000:00:00
PU1XMG-162026-09-04 12:40:14-22.63163-42.37907224°29km/h21754m7.0m/s-60.1°C1.8%43.3hPa0V00:00:0000:00:0000:00:00
PU1XMG-162026-09-04 12:40:08-22.63135-42.37878219°27km/h21717m5.1m/s-60.0°C1.9%43.6hPa0V00:00:0000:00:0000:00:00
PU1XMG-162026-09-04 12:40:02-22.63100-42.37850230°35km/h21680m4.1m/s-59.9°C1.9%43.8hPa0V00:00:0000:00:0000:00:00
PU1XMG-162026-09-04 12:39:55-22.63069-42.37815221°24km/h21642m7.7m/s-59.8°C1.8%44.1hPa0V00:00:0000:00:0000:00:00
PU1XMG-162026-09-04 12:39:50-22.63041-42.37784232°29km/h21605m5.9m/s-59.7°C1.8%44.4hPa0V00:00:0000:00:0000:00:00
PU1XMG-162026-09-04 12:39:43-22.63009-42.37732233°29km/h21564m7.4m/s-59.7°C1.8%44.7hPa0V00:00:0000:00:0000:00:00
PU1XMG-162026-09-04 12:39:37-22.62991-42.37703249°24km/h21531m7.3m/s-59.9°C1.8%44.9hPa0V00:00:0000:00:0000:00:00
PU1XMG-162026-09-04 12:39:31-22.62980-42.37660257°27km/h21491m6.6m/s-59.9°C1.9%45.2hPa0V00:00:0000:00:0000:00:00
PU1XMG-162026-09-04 12:39:25-22.62976-42.37632265°11km/h21450m4.2m/s-59.6°C1.8%45.5hPa0V00:00:0000:00:0000:00:00
PU1XMG-162026-09-04 12:39:18-22.62979-42.37598281°20km/h21409m6.4m/s-59.6°C1.8%45.8hPa0V00:00:0000:00:0000:00:00
PU1XMG-162026-09-04 12:39:13-22.62980-42.37580272°9km/h21379m8.2m/s-59.3°C1.7%46.0hPa0V00:00:0000:00:0000:00:00
PU1XMG-162026-09-04 12:39:07-22.62979-42.37560270°16km/h21344m7.1m/s-59.6°C1.7%46.3hPa0V00:00:0000:00:0000:00:00
PU1XMG-162026-09-04 12:39:01-22.62980-42.37534287°9km/h21309m5.5m/s-59.9°C1.7%46.5hPa0V00:00:0000:00:0000:00:00
PU1XMG-162026-09-04 12:38:55-22.62984-42.37527333°5km/h21280m5.7m/s-60.3°C1.7%46.7hPa0V00:00:0000:00:0000:00:00
PU1XMG-162026-09-04 12:38:51-22.62988-42.37518278°7km/h21252m4.6m/s-60.6°C1.8%47.0hPa0V00:00:0000:00:0000:00:00
PU1XMG-162026-09-04 12:38:45-22.62983-42.37510200°4km/h21216m6.9m/s-61.5°C1.9%47.2hPa0V00:00:0000:00:0000:00:00
PU1XMG-162026-09-04 12:38:39-22.62984-42.3751958°9km/h21182m6.9m/s-61.9°C2.0%47.5hPa0V00:00:0000:00:0000:00:00
PU1XMG-162026-09-04 12:38:32-22.62988-42.37528161°7km/h21142m7.6m/s-62.1°C2.0%47.8hPa0V00:00:0000:00:0000:00:00
PU1XMG-162026-09-04 12:38:25-22.62964-42.37534145°11km/h21101m4.1m/s-62.4°C2.1%48.1hPa0V00:00:0000:00:0000:00:00
PU1XMG-162026-09-04 12:38:18-22.62953-42.37536206°7km/h21067m6.3m/s-62.2°C2.1%48.4hPa0V00:00:0000:00:0000:00:00
PU1XMG-162026-09-04 12:38:07-22.62933-42.37516206°11km/h21003m6.1m/s-61.8°C2.0%48.9hPa0V00:00:0000:00:0000:00:00
PU1XMG-162026-09-04 12:38:02-22.62919-42.37515213°9km/h20967m7.1m/s-61.4°C2.1%49.2hPa0V00:00:0000:00:0000:00:00
PU1XMG-162026-09-04 12:37:57-22.62912-42.37502249°9km/h20937m7.4m/s-61.3°C2.0%49.4hPa0V00:00:0000:00:0000:00:00
PU1XMG-162026-09-04 12:37:50-22.62902-42.37499163°7km/h20901m5.1m/s-61.3°C2.0%49.7hPa0V00:00:0000:00:0000:00:00
PU1XMG-162026-09-04 12:37:44-22.62893-42.37493267°7km/h20867m5.1m/s-61.1°C2.0%50.0hPa0V00:00:0000:00:0000:00:00
PU1XMG-162026-09-04 12:37:39-22.62891-42.37486120°5km/h20832m5.3m/s-61.1°C1.9%50.3hPa0V00:00:0000:00:0000:00:00
PU1XMG-162026-09-04 12:37:32-22.62879-42.37490180°11km/h20796m6.4m/s-61.1°C1.9%50.6hPa0V00:00:0000:00:0000:00:00
PU1XMG-162026-09-04 12:37:24-22.62856-42.37498159°4km/h20743m5.8m/s-61.2°C1.9%51.0hPa0V00:00:0000:00:0000:00:00
PU1XMG-162026-09-04 12:37:15-22.62843-42.37494154°13km/h20691m5.5m/s-61.9°C2.0%51.4hPa0V00:00:0000:00:0000:00:00
PU1XMG-162026-09-04 12:37:09-22.62823-42.37508145°16km/h20657m7.8m/s-61.8°C2.0%51.7hPa0V00:00:0000:00:0000:00:00
PU1XMG-162026-09-04 12:35:51-22.62580-42.37785154°27km/h20205m7.0m/s-62.4°C2.1%55.6hPa0V00:00:0000:00:0000:00:00
PU1XMG-162026-09-04 12:35:46-22.62547-42.37801161°20km/h20170m4.9m/s-62.3°C2.2%56.0hPa0V00:00:0000:00:0000:00:00
PU1XMG-162026-09-04 12:34:30-22.62141-42.37880131°13km/h19716m7.4m/s-61.6°C2.0%60.2hPa0V00:00:0000:00:0000:00:00
PU1XMG-162026-09-04 12:33:47-22.62065-42.3809782°22km/h19461m5.5m/s-62.0°C2.1%62.8hPa0V00:00:0000:00:0000:00:00
PU1XMG-162026-09-04 12:33:39-22.62067-42.3814282°24km/h19413m6.7m/s-61.9°C2.1%63.3hPa0V00:00:0000:00:0000:00:00
PU1XMG-162026-09-04 12:33:33-22.62073-42.3818289°26km/h19378m5.0m/s-61.6°C2.1%63.6hPa0V00:00:0000:00:0000:00:00
PU1XMG-162026-09-04 12:33:05-22.62074-42.3832082°27km/h19222m6.5m/s-61.3°C2.2%65.3hPa0V00:00:0000:00:0000:00:00
PU1XMG-162026-09-04 12:32:53-22.62082-42.3839175°24km/h19155m6.7m/s-61.3°C2.2%65.9hPa0V00:00:0000:00:0000:00:00
PU1XMG-162026-09-04 12:32:48-22.62094-42.3843473°27km/h19121m5.8m/s-61.2°C2.2%66.3hPa0V00:00:0000:00:0000:00:00
PU1XMG-162026-09-04 12:32:05-22.62177-42.3871866°37km/h18888m5.4m/s-60.9°C2.2%68.9hPa0V00:00:0000:00:0000:00:00
PU1XMG-162026-09-04 12:31:59-22.62206-42.3877766°31km/h18850m5.4m/s-61.4°C2.2%69.3hPa0V00:00:0000:00:0000:00:00
PU1XMG-162026-09-04 12:31:49-22.62237-42.3886167°46km/h18803m3.7m/s-61.6°C2.4%69.8hPa0V00:00:0000:00:0000:00:00
PU1XMG-162026-09-04 12:31:44-22.62262-42.3893071°44km/h18769m7.0m/s-62.0°C2.5%70.2hPa0V00:00:0000:00:0000:00:00
PU1XMG-162026-09-04 12:31:39-22.62279-42.3898778°46km/h18741m6.7m/s-62.0°C2.5%70.5hPa0V00:00:0000:00:0000:00:00
PU1XMG-162026-09-04 12:31:33-22.62293-42.3906884°53km/h18708m2.8m/s-61.8°C2.6%70.9hPa0V00:00:0000:00:0000:00:00
PU1XMG-162026-09-04 12:31:26-22.62305-42.3914883°47km/h18674m6.9m/s-61.6°C2.7%71.3hPa0V00:00:0000:00:0000:00:00
PU1XMG-162026-09-04 12:31:19-22.62310-42.3924083°46km/h18637m3.8m/s-61.4°C2.6%71.7hPa0V00:00:0000:00:0000:00:00
PU1XMG-162026-09-04 12:31:13-22.62325-42.3931979°55km/h18604m5.9m/s-61.3°C2.7%72.1hPa0V00:00:0000:00:0000:00:00
PU1XMG-162026-09-04 12:31:08-22.62332-42.3939094°49km/h18576m5.2m/s-61.6°C2.8%72.4hPa0V00:00:0000:00:0000:00:00
PU1XMG-162026-09-04 12:31:02-22.62331-42.3946381°49km/h18543m5.4m/s-61.4°C2.8%72.8hPa0V00:00:0000:00:0000:00:00
PU1XMG-162026-09-04 12:30:56-22.62347-42.3954386°47km/h18509m3.8m/s-61.5°C3.0%73.2hPa0V00:00:0000:00:0000:00:00
PU1XMG-162026-09-04 12:30:50-22.62348-42.3962986°44km/h18470m5.9m/s-61.8°C3.0%73.7hPa0V00:00:0000:00:0000:00:00
PU1XMG-162026-09-04 12:30:44-22.62360-42.3969376°49km/h18442m6.5m/s-62.0°C3.0%74.0hPa0V00:00:0000:00:0000:00:00
PU1XMG-162026-09-04 12:30:37-22.62373-42.3980285°49km/h18398m6.4m/s-62.4°C3.1%74.5hPa0V00:00:0000:00:0000:00:00
PU1XMG-162026-09-04 12:30:26-22.62354-42.39935112°53km/h18339m4.6m/s-64.6°C3.7%75.2hPa0V00:00:0000:00:0000:00:00
PU1XMG-162026-09-04 12:30:18-22.62333-42.40030102°44km/h18301m5.2m/s-65.0°C4.1%75.7hPa0V00:00:0000:00:0000:00:00
PU1XMG-162026-09-04 12:30:11-22.62330-42.4013685°57km/h18258m4.7m/s-64.9°C4.0%76.3hPa0V00:00:0000:00:0000:00:00
PU1XMG-162026-09-04 12:26:17-22.62314-42.44304107°93km/h16948m7.0m/s-72.2°C10.6%94.9hPa0V00:00:0000:00:0000:00:00
PU1XMG-162026-09-04 12:26:11-22.62267-42.44463109°104km/h16913m3.8m/s-72.6°C10.8%95.5hPa0V00:00:0000:00:0000:00:00
PU1XMG-162026-09-04 12:26:04-22.62202-42.44666111°95km/h16866m2.7m/s-72.2°C10.8%96.3hPa0V00:00:0000:00:0000:00:00
PU1XMG-162026-09-04 12:25:53-22.62105-42.44939113°97km/h16803m5.4m/s-71.9°C10.5%97.3hPa0V00:00:0000:00:0000:00:00
PU1XMG-162026-09-04 12:25:47-22.62065-42.45057110°89km/h16775m6.7m/s-71.8°C10.5%97.7hPa0V00:00:0000:00:0000:00:00
PU1XMG-162026-09-04 12:25:41-22.62020-42.45203108°93km/h16742m4.2m/s-71.7°C10.7%98.3hPa0V00:00:0000:00:0000:00:00
PU1XMG-162026-09-04 12:25:35-22.61977-42.45342111°88km/h16710m6.6m/s-71.6°C10.6%98.9hPa0V00:00:0000:00:0000:00:00
PU1XMG-162026-09-04 12:25:30-22.61943-42.45454108°84km/h16680m3.9m/s-71.3°C10.8%99.3hPa0V00:00:0000:00:0000:00:00
PU1XMG-162026-09-04 12:25:24-22.61912-42.45590103°86km/h16645m8.3m/s-71.2°C10.5%99.9hPa0V00:00:0000:00:0000:00:00
PU1XMG-162026-09-04 12:25:19-22.61884-42.45727103°78km/h16609m3.8m/s-71.1°C10.2%100.5hPa0V00:00:0000:00:0000:00:00
PU1XMG-162026-09-04 12:25:13-22.61860-42.45833101°80km/h16582m5.0m/s-71.0°C10.5%101.0hPa0V00:00:0000:00:0000:00:00
PU1XMG-162026-09-04 12:25:07-22.61843-42.4596396°75km/h16549m3.5m/s-71.0°C10.3%101.6hPa0V00:00:0000:00:0000:00:00
PU1XMG-162026-09-04 12:25:02-22.61831-42.4609296°82km/h16517m5.5m/s-71.2°C10.6%102.1hPa0V00:00:0000:00:0000:00:00
PU1XMG-162026-09-04 12:24:55-22.61824-42.4624693°77km/h16481m5.6m/s-71.3°C10.2%102.8hPa0V00:00:0000:00:0000:00:00
PU1XMG-162026-09-04 12:24:45-22.61832-42.4643383°80km/h16435m5.2m/s-71.5°C10.2%103.5hPa0V00:00:0000:00:0000:00:00
PU1XMG-162026-09-04 12:24:40-22.61847-42.4656584°84km/h16404m4.2m/s-71.7°C10.4%104.1hPa0V00:00:0000:00:0000:00:00
PU1XMG-162026-09-04 12:18:09-22.65908-42.5866273°153km/h14339m3.4m/s-66.6°C19.0%147.1hPa0V00:00:0000:00:0000:00:00
PU1XMG-162026-09-04 12:18:02-22.65990-42.5894775°159km/h14303m4.0m/s-66.3°C19.4%148.0hPa0V00:00:0000:00:0000:00:00
PU1XMG-162026-09-04 12:17:54-22.66083-42.5931275°151km/h14257m3.4m/s-66.0°C17.7%149.1hPa0V00:00:0000:00:0000:00:00
PU1XMG-162026-09-04 12:17:47-22.66145-42.5955476°155km/h14227m4.5m/s-65.7°C17.3%149.8hPa0V00:00:0000:00:0000:00:00
PU1XMG-162026-09-04 12:17:41-22.66203-42.5979877°151km/h14195m5.3m/s-65.5°C16.7%150.6hPa0V00:00:0000:00:0000:00:00
PU1XMG-162026-09-04 12:17:35-22.66262-42.6004376°155km/h14165m7.1m/s-65.1°C16.4%151.4hPa0V00:00:0000:00:0000:00:00
PU1XMG-162026-09-04 12:17:29-22.66320-42.6029077°153km/h14133m5.1m/s-64.9°C16.0%152.1hPa0V00:00:0000:00:0000:00:00
PU1XMG-162026-09-04 12:17:24-22.66362-42.6049079°150km/h14107m3.9m/s-64.6°C15.1%152.8hPa0V00:00:0000:00:0000:00:00
PU1XMG-162026-09-04 12:17:18-22.66416-42.6073376°155km/h14077m5.2m/s-64.3°C15.0%153.5hPa0V00:00:0000:00:0000:00:00
PU1XMG-162026-09-04 12:17:12-22.66473-42.6097879°151km/h14047m6.2m/s-64.1°C15.0%154.3hPa0V00:00:0000:00:0000:00:00
PU1XMG-162026-09-04 12:17:07-22.66512-42.6117880°150km/h14020m4.4m/s-64.0°C14.0%155.0hPa0V00:00:0000:00:0000:00:00
PU1XMG-162026-09-04 12:17:02-22.66563-42.6142477°157km/h13988m5.3m/s-63.6°C13.3%155.8hPa0V00:00:0000:00:0000:00:00
PU1XMG-162026-09-04 12:16:55-22.66616-42.6167180°148km/h13959m4.6m/s-63.3°C13.6%156.5hPa0V00:00:0000:00:0000:00:00
PU1XMG-162026-09-04 12:16:49-22.66658-42.6191280°155km/h13930m5.8m/s-63.1°C13.2%157.3hPa0V00:00:0000:00:0000:00:00
PU1XMG-162026-09-04 12:16:44-22.66706-42.6215880°150km/h13899m6.1m/s-62.8°C12.9%158.0hPa0V00:00:0000:00:0000:00:00
PU1XMG-162026-09-04 12:16:17-22.66900-42.6321880°153km/h13764m4.7m/s-61.7°C12.2%161.5hPa0V00:00:0000:00:0000:00:00
PU1XMG-162026-09-04 12:16:12-22.66943-42.6346581°150km/h13732m5.2m/s-61.5°C11.9%162.4hPa0V00:00:0000:00:0000:00:00
PU1XMG-162026-09-04 12:16:05-22.66982-42.6370981°151km/h13700m4.2m/s-61.1°C11.8%163.2hPa0V00:00:0000:00:0000:00:00
PU1XMG-162026-09-04 12:16:00-22.67019-42.6395383°150km/h13670m5.0m/s-60.8°C11.5%164.0hPa0V00:00:0000:00:0000:00:00
PU1XMG-162026-09-04 12:15:53-22.67056-42.6419581°150km/h13639m6.5m/s-60.5°C11.5%164.8hPa0V00:00:0000:00:0000:00:00
PU1XMG-162026-09-04 12:15:48-22.67092-42.6439780°150km/h13612m4.2m/s-60.2°C12.0%165.5hPa0V00:00:0000:00:0000:00:00
PU1XMG-162026-09-04 12:15:42-22.67132-42.6464182°151km/h13582m6.6m/s-60.1°C12.2%166.3hPa0V00:00:0000:00:0000:00:00
PU1XMG-162026-09-04 12:15:36-22.67173-42.6488480°146km/h13551m4.6m/s-59.8°C12.5%167.1hPa0V00:00:0000:00:0000:00:00
PU1XMG-162026-09-04 12:15:31-22.67207-42.6507980°146km/h13527m6.4m/s-59.7°C12.9%167.8hPa0V00:00:0000:00:0000:00:00
PU1XMG-162026-09-04 12:15:26-22.67243-42.6528079°148km/h13500m4.9m/s-59.6°C12.9%168.5hPa0V00:00:0000:00:0000:00:00
PU1XMG-162026-09-04 12:15:20-22.67288-42.6551378°144km/h13468m3.6m/s-59.7°C13.8%169.3hPa0V00:00:0000:00:0000:00:00
PU1XMG-162026-09-04 12:15:15-22.67332-42.6570777°146km/h13442m5.8m/s-59.5°C13.6%170.0hPa0V00:00:0000:00:0000:00:00
PU1XMG-162026-09-04 12:15:10-22.67385-42.6594678°150km/h13411m5.5m/s-59.3°C14.0%170.9hPa0V00:00:0000:00:0000:00:00
PU1XMG-162026-09-04 12:15:04-22.67430-42.6614178°146km/h13385m4.7m/s-59.3°C14.2%171.6hPa0V00:00:0000:00:0000:00:00
PU1XMG-162026-09-04 12:14:59-22.67472-42.6637582°148km/h13354m6.4m/s-59.1°C14.6%172.5hPa0V00:00:0000:00:0000:00:00
PU1XMG-162026-09-04 12:14:53-22.67503-42.6657481°148km/h13327m4.3m/s-59.0°C14.9%173.2hPa0V00:00:0000:00:0000:00:00
PU1XMG-162026-09-04 12:14:48-22.67536-42.6677282°146km/h13300m6.1m/s-59.1°C14.5%173.9hPa0V00:00:0000:00:0000:00:00
PU1XMG-162026-09-04 12:14:43-22.67560-42.6697184°146km/h13274m4.9m/s-58.8°C14.1%174.7hPa0V00:00:0000:00:0000:00:00
PU1XMG-162026-09-04 12:14:38-22.67593-42.6721282°150km/h13243m5.7m/s-58.5°C13.1%175.5hPa0V00:00:0000:00:0000:00:00
PU1XMG-162026-09-04 12:14:29-22.67636-42.6753482°148km/h13205m4.1m/s-58.2°C13.3%176.6hPa0V00:00:0000:00:0000:00:00
PU1XMG-162026-09-04 12:14:24-22.67666-42.6777684°150km/h13173m5.9m/s-57.9°C12.8%177.5hPa0V00:00:0000:00:0000:00:00
PU1XMG-162026-09-04 12:14:02-22.67786-42.6862282°151km/h13069m4.9m/s-56.8°C11.5%180.4hPa0V00:00:0000:00:0000:00:00
PU1XMG-162026-09-04 12:13:56-22.67824-42.6886681°148km/h13037m5.2m/s-56.6°C10.8%181.3hPa0V00:00:0000:00:0000:00:00
PU1XMG-162026-09-04 12:13:51-22.67855-42.6906681°148km/h13012m5.7m/s-56.4°C10.1%182.0hPa0V00:00:0000:00:0000:00:00
PU1XMG-162026-09-04 12:13:46-22.67890-42.6926480°150km/h12987m5.9m/s-56.3°C10.4%182.8hPa0V00:00:0000:00:0000:00:00
PU1XMG-162026-09-04 12:13:40-22.67925-42.6950983°151km/h12959m4.1m/s-56.1°C10.5%183.6hPa0V00:00:0000:00:0000:00:00
PU1XMG-162026-09-04 12:13:35-22.67953-42.6971283°146km/h12932m4.0m/s-55.9°C10.8%184.4hPa0V00:00:0000:00:0000:00:00
PU1XMG-162026-09-04 12:13:29-22.67982-42.6995085°148km/h12902m4.7m/s-55.7°C10.7%185.2hPa0V00:00:0000:00:0000:00:00
PU1XMG-162026-09-04 12:13:23-22.68006-42.7018985°148km/h12869m4.3m/s-55.5°C10.5%186.2hPa0V00:00:0000:00:0000:00:00
PU1XMG-162026-09-04 12:13:19-22.68024-42.7039586°153km/h12843m6.1m/s-55.3°C11.0%186.9hPa0V00:00:0000:00:0000:00:00
PU1XMG-162026-09-04 12:13:13-22.68041-42.7059786°142km/h12820m4.5m/s-55.2°C11.1%187.6hPa0V00:00:0000:00:0000:00:00
PU1XMG-162026-09-04 12:13:07-22.68060-42.7082787°141km/h12791m4.3m/s-55.0°C10.5%188.5hPa0V00:00:0000:00:0000:00:00
PU1XMG-162026-09-04 12:13:01-22.68077-42.7106486°146km/h12762m4.2m/s-54.7°C10.6%189.3hPa0V00:00:0000:00:0000:00:00
PU1XMG-162026-09-04 12:12:56-22.68091-42.7126388°146km/h12736m5.8m/s-54.6°C10.6%190.1hPa0V00:00:0000:00:0000:00:00
PU1XMG-162026-09-04 12:12:51-22.68103-42.7150486°146km/h12707m5.2m/s-54.6°C11.4%190.9hPa0V00:00:0000:00:0000:00:00
PU1XMG-162026-09-04 12:12:45-22.68123-42.7174286°142km/h12678m6.4m/s-54.4°C11.2%191.8hPa0V00:00:0000:00:0000:00:00
PU1XMG-162026-09-04 12:12:39-22.68143-42.7197485°144km/h12650m4.0m/s-54.2°C11.2%192.7hPa0V00:00:0000:00:0000:00:00
PU1XMG-162026-09-04 12:12:33-22.68164-42.7217284°146km/h12624m5.7m/s-54.0°C11.2%193.4hPa0V00:00:0000:00:0000:00:00
PU1XMG-162026-09-04 12:12:27-22.68189-42.7240386°139km/h12592m4.8m/s-53.7°C11.1%194.4hPa0V00:00:0000:00:0000:00:00
PU1XMG-162026-09-04 12:12:22-22.68208-42.7259785°146km/h12567m5.3m/s-53.5°C10.7%195.1hPa0V00:00:0000:00:0000:00:00
PU1XMG-162026-09-04 12:12:16-22.68232-42.7283585°144km/h12536m6.0m/s-53.2°C10.9%196.0hPa0V00:00:0000:00:0000:00:00
PU1XMG-162026-09-04 12:12:11-22.68253-42.7302885°139km/h12512m6.3m/s-53.1°C10.7%196.7hPa0V00:00:0000:00:0000:00:00
PU1XMG-162026-09-04 12:12:06-22.68271-42.7325787°142km/h12484m3.6m/s-52.7°C10.5%197.7hPa0V00:00:0000:00:0000:00:00
PU1XMG-162026-09-04 12:11:59-22.68296-42.7349281°142km/h12455m4.9m/s-52.6°C9.9%198.5hPa0V00:00:0000:00:0000:00:00
PU1XMG-162026-09-04 12:11:54-22.68323-42.7368585°144km/h12432m3.8m/s-52.2°C9.7%199.2hPa0V00:00:0000:00:0000:00:00
PU1XMG-162026-09-04 12:11:48-22.68349-42.7391883°141km/h12403m5.1m/s-52.0°C9.4%200.0hPa0V00:00:0000:00:0000:00:00
PU1XMG-162026-09-04 12:11:43-22.68377-42.7411082°142km/h12379m3.9m/s-51.8°C9.1%200.8hPa0V00:00:0000:00:0000:00:00
PU1XMG-162026-09-04 12:11:38-22.68398-42.7430485°144km/h12354m5.8m/s-51.5°C9.1%201.6hPa0V00:00:0000:00:0000:00:00
PU1XMG-162026-09-04 12:11:33-22.68428-42.7453681°141km/h12326m5.9m/s-51.4°C8.9%202.5hPa0V00:00:0000:00:0000:00:00
PU1XMG-162026-09-04 12:11:27-22.68456-42.7472783°142km/h12301m4.0m/s-51.1°C8.7%203.3hPa0V00:00:0000:00:0000:00:00
PU1XMG-162026-09-04 12:11:21-22.68491-42.7496180°146km/h12272m4.1m/s-50.9°C8.6%204.3hPa0V00:00:0000:00:0000:00:00
PU1XMG-162026-09-04 12:11:15-22.68531-42.7519281°139km/h12243m4.8m/s-50.7°C8.4%205.2hPa0V00:00:0000:00:0000:00:00
PU1XMG-162026-09-04 12:11:11-22.68561-42.7538180°141km/h12220m5.0m/s-50.6°C8.7%205.9hPa0V00:00:0000:00:0000:00:00
PU1XMG-162026-09-04 12:11:04-22.68601-42.7561181°142km/h12191m7.5m/s-50.6°C8.8%206.8hPa0V00:00:0000:00:0000:00:00
PU1XMG-162026-09-04 12:10:59-22.68630-42.7580282°142km/h12164m4.5m/s-50.3°C8.7%207.6hPa0V00:00:0000:00:0000:00:00
PU1XMG-162026-09-04 12:10:54-22.68657-42.7599482°141km/h12140m6.1m/s-50.2°C8.7%208.5hPa0V00:00:0000:00:0000:00:00
PU1XMG-162026-09-04 12:10:48-22.68689-42.7622284°141km/h12110m4.3m/s-50.0°C8.9%209.4hPa0V00:00:0000:00:0000:00:00
PU1XMG-162026-09-04 12:10:09-22.68887-42.7768782°139km/h11923m5.4m/s-49.0°C9.4%215.4hPa0V00:00:0000:00:0000:00:00
PU1XMG-162026-09-04 12:09:59-22.68946-42.7805783°139km/h11873m4.5m/s-48.7°C8.9%217.0hPa0V00:00:0000:00:0000:00:00
PU1XMG-162026-09-04 12:09:53-22.68977-42.7828382°137km/h11846m4.7m/s-48.4°C9.3%217.9hPa0V00:00:0000:00:0000:00:00
PU1XMG-162026-09-04 12:09:48-22.69006-42.7846981°137km/h11820m6.1m/s-48.2°C9.2%218.7hPa0V00:00:0000:00:0000:00:00
PU1XMG-162026-09-04 12:09:43-22.69042-42.7869180°137km/h11793m4.3m/s-48.1°C8.9%219.7hPa0V00:00:0000:00:0000:00:00
PU1XMG-162026-09-04 12:09:36-22.69080-42.7891381°139km/h11766m3.1m/s-47.8°C9.3%220.6hPa0V00:00:0000:00:0000:00:00
PU1XMG-162026-09-04 12:09:30-22.69123-42.7913879°139km/h11738m6.4m/s-47.6°C9.8%221.5hPa0V00:00:0000:00:0000:00:00
PU1XMG-162026-09-04 12:09:24-22.69164-42.7936180°139km/h11708m6.3m/s-47.4°C9.4%222.4hPa0V00:00:0000:00:0000:00:00
PU1XMG-162026-09-04 12:09:19-22.69205-42.7958279°137km/h11678m5.9m/s-47.3°C9.6%223.5hPa0V00:00:0000:00:0000:00:00
PU1XMG-162026-09-04 12:08:51-22.69436-42.8058677°139km/h11546m5.7m/s-46.0°C10.3%228.0hPa0V00:00:0000:00:0000:00:00
PU1XMG-162026-09-04 12:08:47-22.69483-42.8077275°142km/h11522m6.5m/s-45.9°C10.9%228.8hPa0V00:00:0000:00:0000:00:00
PU1XMG-162026-09-04 12:08:40-22.69545-42.8099773°141km/h11494m6.1m/s-45.7°C11.2%229.8hPa0V00:00:0000:00:0000:00:00
PU1XMG-162026-09-04 12:08:36-22.69597-42.8117975°139km/h11470m5.9m/s-45.5°C11.0%230.6hPa0V00:00:0000:00:0000:00:00
PU1XMG-162026-09-04 12:08:30-22.69662-42.8140373°146km/h11437m3.7m/s-45.2°C11.6%231.7hPa0V00:00:0000:00:0000:00:00
PU1XMG-162026-09-04 12:08:23-22.69727-42.8163275°144km/h11407m5.5m/s-44.9°C11.6%232.8hPa0V00:00:0000:00:0000:00:00
PU1XMG-162026-09-04 12:08:18-22.69784-42.8181971°148km/h11381m4.6m/s-44.7°C11.4%233.7hPa0V00:00:0000:00:0000:00:00
PU1XMG-162026-09-04 12:08:13-22.69847-42.8201172°148km/h11357m3.6m/s-44.4°C11.2%234.6hPa0V00:00:0000:00:0000:00:00
PU1XMG-162026-09-04 12:08:08-22.69912-42.8224074°144km/h11327m4.5m/s-44.1°C11.0%235.6hPa0V00:00:0000:00:0000:00:00
PU1XMG-162026-09-04 12:08:01-22.69985-42.8246771°150km/h11297m4.4m/s-43.9°C10.6%236.6hPa0V00:00:0000:00:0000:00:00
PU1XMG-162026-09-04 12:07:56-22.70041-42.8266076°146km/h11272m6.6m/s-43.7°C10.3%237.4hPa0V00:00:0000:00:0000:00:00
PU1XMG-162026-09-04 12:07:50-22.70104-42.8288471°146km/h11245m3.9m/s-43.4°C10.2%238.4hPa0V00:00:0000:00:0000:00:00
PU1XMG-162026-09-04 12:07:45-22.70170-42.8307573°151km/h11222m2.7m/s-43.1°C10.6%239.2hPa0V00:00:0000:00:0000:00:00
PU1XMG-162026-09-04 12:07:39-22.70238-42.8330272°144km/h11186m4.0m/s-42.9°C10.3%240.4hPa0V00:00:0000:00:0000:00:00
PU1XMG-162026-09-04 12:07:34-22.70297-42.8349273°151km/h11154m5.5m/s-42.6°C9.9%241.6hPa0V00:00:0000:00:0000:00:00
PU1XMG-162026-09-04 12:07:29-22.70355-42.8368673°146km/h11126m6.0m/s-42.2°C9.8%242.6hPa0V00:00:0000:00:0000:00:00
PU1XMG-162026-09-04 12:07:24-22.70415-42.8387370°144km/h11101m3.1m/s-41.9°C10.3%243.5hPa0V00:00:0000:00:0000:00:00
PU1XMG-162026-09-04 12:07:18-22.70487-42.8410073°146km/h11073m5.3m/s-41.8°C9.5%244.5hPa0V00:00:0000:00:0000:00:00
PU1XMG-162026-09-04 12:07:13-22.70543-42.8429274°148km/h11048m6.9m/s-41.5°C9.7%245.5hPa0V00:00:0000:00:0000:00:00
PU1XMG-162026-09-04 12:07:01-22.70677-42.8475073°148km/h10992m5.9m/s-41.0°C9.5%247.5hPa0V00:00:0000:00:0000:00:00
PU1XMG-162026-09-04 12:06:56-22.70734-42.8494473°148km/h10968m5.4m/s-40.7°C9.5%248.4hPa0V00:00:0000:00:0000:00:00
PU1XMG-162026-09-04 12:06:51-22.70788-42.8513675°146km/h10943m3.9m/s-40.6°C9.7%249.2hPa0V00:00:0000:00:0000:00:00
PU1XMG-162026-09-04 12:06:45-22.70856-42.8536573°148km/h10914m4.9m/s-40.3°C10.6%250.3hPa0V00:00:0000:00:0000:00:00
PU1XMG-162026-09-04 12:06:40-22.70912-42.8556074°148km/h10889m5.7m/s-40.2°C10.4%251.2hPa0V00:00:0000:00:0000:00:00
PU1XMG-162026-09-04 12:06:35-22.70964-42.8575274°148km/h10865m5.4m/s-39.9°C10.5%252.1hPa0V00:00:0000:00:0000:00:00
PU1XMG-162026-09-04 12:06:30-22.71021-42.8594974°151km/h10843m4.5m/s-39.6°C10.5%252.9hPa0V00:00:0000:00:0000:00:00
PU1XMG-162026-09-04 12:06:24-22.71083-42.8618576°146km/h10812m4.8m/s-39.4°C10.1%254.0hPa0V00:00:0000:00:0000:00:00
PU1XMG-162026-09-04 12:06:19-22.71135-42.8637974°148km/h10788m4.7m/s-39.2°C10.0%254.9hPa0V00:00:0000:00:0000:00:00
PU1XMG-162026-09-04 12:06:13-22.71197-42.8661476°150km/h10760m5.8m/s-38.9°C9.8%255.9hPa0V00:00:0000:00:0000:00:00
PU1XMG-162026-09-04 12:06:08-22.71249-42.8681075°150km/h10735m5.2m/s-38.7°C9.5%256.9hPa0V00:00:0000:00:0000:00:00
PU1XMG-162026-09-04 12:06:01-22.71317-42.8708676°151km/h10702m6.1m/s-38.3°C9.6%258.1hPa0V00:00:0000:00:0000:00:00
PU1XMG-162026-09-04 12:05:56-22.71369-42.8728275°144km/h10676m5.2m/s-38.2°C9.3%259.1hPa0V00:00:0000:00:0000:00:00
PU1XMG-162026-09-04 12:05:50-22.71428-42.8751375°151km/h10649m4.3m/s-37.9°C9.0%260.2hPa0V00:00:0000:00:0000:00:00
PU1XMG-162026-09-04 12:05:45-22.71479-42.8771476°151km/h10625m5.5m/s-37.6°C9.0%261.1hPa0V00:00:0000:00:0000:00:00
PU1XMG-162026-09-04 12:05:39-22.71539-42.8794775°146km/h10596m6.7m/s-37.4°C8.8%262.2hPa0V00:00:0000:00:0000:00:00
PU1XMG-162026-09-04 12:05:33-22.71598-42.8818277°151km/h10567m5.7m/s-37.1°C8.5%263.3hPa0V00:00:0000:00:0000:00:00
PU1XMG-162026-09-04 12:05:27-22.71656-42.8841976°142km/h10536m5.7m/s-36.8°C8.3%264.4hPa0V00:00:0000:00:0000:00:00
PU1XMG-162026-09-04 12:05:14-22.71774-42.8891577°150km/h10476m6.7m/s-36.4°C7.7%266.8hPa0V00:00:0000:00:0000:00:00
PU1XMG-162026-09-04 12:05:08-22.71825-42.8914578°142km/h10444m5.3m/s-36.1°C7.3%268.0hPa0V00:00:0000:00:0000:00:00
PU1XMG-162026-09-04 12:05:03-22.71866-42.8933878°144km/h10418m6.9m/s-35.9°C7.2%269.0hPa0V00:00:0000:00:0000:00:00
PU1XMG-162026-09-04 12:04:57-22.71911-42.8956878°141km/h10384m4.8m/s-35.6°C7.1%270.3hPa0V00:00:0000:00:0000:00:00
PU1XMG-162026-09-04 12:04:52-22.71949-42.8975979°148km/h10358m5.1m/s-35.4°C7.0%271.3hPa0V00:00:0000:00:0000:00:00
PU1XMG-162026-09-04 12:04:46-22.71988-42.8999482°139km/h10321m7.9m/s-35.0°C6.7%272.7hPa0V00:00:0000:00:0000:00:00
PU1XMG-162026-09-04 12:04:41-22.72020-42.9018280°142km/h10287m8.0m/s-34.7°C6.3%273.9hPa0V00:00:0000:00:0000:00:00
PU1XMG-162026-09-04 12:04:36-22.72054-42.9037381°141km/h10258m5.4m/s-34.5°C6.1%275.1hPa0V00:00:0000:00:0000:00:00
PU1XMG-162026-09-04 12:04:31-22.72081-42.9056483°144km/h10231m4.8m/s-34.2°C5.7%276.2hPa0V00:00:0000:00:0000:00:00
PU1XMG-162026-09-04 12:04:26-22.72109-42.9075681°142km/h10204m4.8m/s-34.0°C4.9%277.2hPa0V00:00:0000:00:0000:00:00
PU1XMG-162026-09-04 12:04:20-22.72148-42.9098381°141km/h10173m7.1m/s-33.7°C3.8%278.5hPa0V00:00:0000:00:0000:00:00
PU1XMG-162026-09-04 12:04:15-22.72172-42.9117584°142km/h10146m3.6m/s-33.6°C3.6%279.5hPa0V00:00:0000:00:0000:00:00
PU1XMG-162026-09-04 12:04:11-22.72197-42.9136482°139km/h10120m4.6m/s-33.4°C3.6%280.6hPa0V00:00:0000:00:0000:00:00
PU1XMG-162026-09-04 12:04:04-22.72233-42.9159281°141km/h10088m5.0m/s-33.1°C3.6%281.8hPa0V00:00:0000:00:0000:00:00
PU1XMG-162026-09-04 12:03:59-22.72258-42.9178383°139km/h10064m6.0m/s-32.9°C3.5%282.8hPa0V00:00:0000:00:0000:00:00
PU1XMG-162026-09-04 12:03:55-22.72287-42.9197781°144km/h10029m6.4m/s-32.6°C3.5%284.2hPa0V00:00:0000:00:0000:00:00
PU1XMG-162026-09-04 12:03:49-22.72323-42.9216778°141km/h9997m6.8m/s-32.4°C3.4%285.5hPa0V00:00:0000:00:0000:00:00
PU1XMG-162026-09-04 12:03:43-22.72364-42.9239181°141km/h9963m7.6m/s-32.2°C3.2%287.0hPa0V00:00:0000:00:0000:00:00
PU1XMG-162026-09-04 12:03:38-22.72398-42.9261981°139km/h9931m6.3m/s-32.0°C3.4%288.2hPa0V00:00:0000:00:0000:00:00
PU1XMG-162026-09-04 12:03:32-22.72434-42.9284782°141km/h9900m4.3m/s-31.8°C3.6%289.5hPa0V00:00:0000:00:0000:00:00
PU1XMG-162026-09-04 12:03:20-22.72503-42.9325480°137km/h9844m4.8m/s-31.6°C4.5%291.8hPa0V00:00:0000:00:0000:00:00
PU1XMG-162026-09-04 12:03:15-22.72536-42.9344081°141km/h9818m6.4m/s-31.5°C4.0%292.9hPa0V00:00:0000:00:0000:00:00
PU1XMG-162026-09-04 12:03:09-22.72576-42.9366079°133km/h9786m6.3m/s-31.3°C3.4%294.2hPa0V00:00:0000:00:0000:00:00
PU1XMG-162026-09-04 12:03:03-22.72613-42.9387281°130km/h9757m2.7m/s-31.0°C3.2%295.5hPa0V00:00:0000:00:0000:00:00
PU1XMG-162026-09-04 12:02:58-22.72647-42.9405378°137km/h9732m5.8m/s-30.8°C3.1%296.5hPa0V00:00:0000:00:0000:00:00
PU1XMG-162026-09-04 12:02:52-22.72702-42.9427576°137km/h9700m6.2m/s-30.6°C3.1%297.9hPa0V00:00:0000:00:0000:00:00
PU1XMG-162026-09-04 12:02:46-22.72756-42.9449077°135km/h9667m6.6m/s-30.3°C3.1%299.2hPa0V00:00:0000:00:0000:00:00
PU1XMG-162026-09-04 12:02:41-22.72795-42.9467378°139km/h9640m6.1m/s-30.1°C3.1%300.4hPa0V00:00:0000:00:0000:00:00
PU1XMG-162026-09-04 12:02:36-22.72842-42.9485872°141km/h9611m7.7m/s-29.9°C3.1%301.6hPa0V00:00:0000:00:0000:00:00
PU1XMG-162026-09-04 12:02:30-22.72908-42.9507173°133km/h9572m5.5m/s-29.5°C3.1%303.2hPa0V00:00:0000:00:0000:00:00
PU1XMG-162026-09-04 12:02:25-22.72956-42.9524775°139km/h9542m5.6m/s-29.3°C3.1%304.5hPa0V00:00:0000:00:0000:00:00
PU1XMG-162026-09-04 12:02:19-22.73020-42.9546472°137km/h9511m4.4m/s-29.0°C3.1%305.8hPa0V00:00:0000:00:0000:00:00
PU1XMG-162026-09-04 12:02:14-22.73077-42.9563872°135km/h9485m6.0m/s-28.8°C3.1%306.9hPa0V00:00:0000:00:0000:00:00
PU1XMG-162026-09-04 12:02:08-22.73146-42.9585371°141km/h9457m4.5m/s-28.6°C3.0%308.1hPa0V00:00:0000:00:0000:00:00
PU1XMG-162026-09-04 12:02:03-22.73208-42.9603772°142km/h9433m5.6m/s-28.3°C3.0%309.2hPa0V00:00:0000:00:0000:00:00
PU1XMG-162026-09-04 12:01:58-22.73265-42.9621672°139km/h9409m4.6m/s-28.1°C3.0%310.2hPa0V00:00:0000:00:0000:00:00
PU1XMG-162026-09-04 12:01:53-22.73323-42.9639472°137km/h9383m6.5m/s-27.9°C2.9%311.3hPa0V00:00:0000:00:0000:00:00
PU1XMG-162026-09-04 12:01:48-22.73394-42.9660871°141km/h9353m5.4m/s-27.7°C2.9%312.6hPa0V00:00:0000:00:0000:00:00
PU1XMG-162026-09-04 12:01:37-22.73506-42.9696974°137km/h9301m5.7m/s-27.2°C2.8%315.0hPa0V00:00:0000:00:0000:00:00
PU1XMG-162026-09-04 12:01:31-22.73569-42.9718372°139km/h9268m4.1m/s-27.0°C2.8%316.3hPa0V00:00:0000:00:0000:00:00
PU1XMG-162026-09-04 12:01:26-22.73635-42.9739875°139km/h9237m5.8m/s-26.7°C2.8%317.6hPa0V00:00:0000:00:0000:00:00
PU1XMG-162026-09-04 12:01:20-22.73689-42.9758072°142km/h9212m6.2m/s-26.6°C2.8%318.7hPa0V00:00:0000:00:0000:00:00
PU1XMG-162026-09-04 12:01:15-22.73748-42.9776172°137km/h9187m4.2m/s-26.4°C2.8%319.8hPa0V00:00:0000:00:0000:00:00
PU1XMG-162026-09-04 12:01:10-22.73804-42.9793873°135km/h9162m5.3m/s-26.3°C2.7%320.9hPa0V00:00:0000:00:0000:00:00
PU1XMG-162026-09-04 12:01:04-22.73871-42.9815772°142km/h9128m6.3m/s-26.1°C2.7%322.3hPa0V00:00:0000:00:0000:00:00
PU1XMG-162026-09-04 12:00:59-22.73934-42.9834171°142km/h9103m4.7m/s-26.1°C3.1%323.5hPa0V00:00:0000:00:0000:00:00
PU1XMG-162026-09-04 12:00:55-22.73999-42.9852169°142km/h9078m3.9m/s-26.0°C3.2%324.6hPa0V00:00:0000:00:0000:00:00
PU1XMG-162026-09-04 12:00:49-22.74065-42.9870369°141km/h9051m5.4m/s-25.8°C3.1%325.8hPa0V00:00:0000:00:0000:00:00
PU1XMG-162026-09-04 12:00:43-22.74149-42.9891967°146km/h9024m3.7m/s-25.7°C3.1%327.1hPa0V00:00:0000:00:0000:00:00
PU1XMG-162026-09-04 12:00:37-22.74234-42.9913268°137km/h8995m4.4m/s-25.4°C3.0%328.4hPa0V00:00:0000:00:0000:00:00
PU1XMG-162026-09-04 12:00:31-22.74320-42.9933866°142km/h8964m4.6m/s-25.2°C3.0%329.9hPa0V00:00:0000:00:0000:00:00
PU1XMG-162026-09-04 12:00:26-22.74392-42.9951668°141km/h8940m5.3m/s-25.0°C3.0%330.9hPa0V00:00:0000:00:0000:00:00
PU1XMG-162026-09-04 12:00:20-22.74478-42.9972667°141km/h8910m4.6m/s-24.7°C3.0%332.3hPa0V00:00:0000:00:0000:00:00
PU1XMG-162026-09-04 12:00:16-22.74546-42.9990170°137km/h8885m6.3m/s-24.5°C3.0%333.4hPa0V00:00:0000:00:0000:00:00
PU1XMG-162026-09-04 12:00:09-22.74619-43.0011369°139km/h8853m5.9m/s-24.5°C3.1%334.8hPa0V00:00:0000:00:0000:00:00
PU1XMG-162026-09-04 12:00:03-22.74708-43.0032568°141km/h8824m3.4m/s-24.3°C3.0%336.2hPa0V00:00:0000:00:0000:00:00
PU1XMG-162026-09-04 11:59:58-22.74772-43.0050271°135km/h8799m6.3m/s-24.2°C2.7%337.4hPa0V00:00:0000:00:0000:00:00
PU1XMG-162026-09-04 11:59:52-22.74856-43.0070966°142km/h8769m4.3m/s-24.3°C3.1%338.7hPa0V00:00:0000:00:0000:00:00
PU1XMG-162026-09-04 11:59:40-22.75036-43.0113267°139km/h8711m6.2m/s-24.3°C3.8%341.4hPa0V00:00:0000:00:0000:00:00
PU1XMG-162026-09-04 11:59:35-22.75103-43.0129966°131km/h8688m5.7m/s-24.2°C3.8%342.5hPa0V00:00:0000:00:0000:00:00
PU1XMG-162026-09-04 11:59:29-22.75193-43.0149965°137km/h8655m5.8m/s-24.0°C3.7%343.9hPa0V00:00:0000:00:0000:00:00
PU1XMG-162026-09-04 11:59:24-22.75262-43.0167168°135km/h8629m5.4m/s-23.9°C3.8%345.2hPa0V00:00:0000:00:0000:00:00
PU1XMG-162026-09-04 11:59:18-22.75346-43.0186866°131km/h8598m6.9m/s-23.7°C3.7%346.7hPa0V00:00:0000:00:0000:00:00
PU1XMG-162026-09-04 11:59:13-22.75414-43.0203467°133km/h8571m4.5m/s-23.6°C3.7%347.9hPa0V00:00:0000:00:0000:00:00
PU1XMG-162026-09-04 11:59:08-22.75486-43.0219964°135km/h8548m6.0m/s-23.5°C4.0%349.0hPa0V00:00:0000:00:0000:00:00
PU1XMG-162026-09-04 11:59:03-22.75559-43.0236066°130km/h8523m3.9m/s-23.8°C5.1%350.2hPa0V00:00:0000:00:0000:00:00
PU1XMG-162026-09-04 11:58:57-22.75637-43.0255467°130km/h8495m5.7m/s-23.8°C5.5%351.6hPa0V00:00:0000:00:0000:00:00
PU1XMG-162026-09-04 11:58:51-22.75721-43.0274864°131km/h8466m5.5m/s-23.8°C5.6%352.9hPa0V00:00:0000:00:0000:00:00
PU1XMG-162026-09-04 11:58:46-22.75814-43.0293863°124km/h8436m5.8m/s-23.6°C5.8%354.5hPa0V00:00:0000:00:0000:00:00
PU1XMG-162026-09-04 11:58:39-22.75904-43.0312663°135km/h8410m4.3m/s-23.4°C5.8%355.7hPa0V00:00:0000:00:0000:00:00
PU1XMG-162026-09-04 11:58:34-22.75985-43.0329464°139km/h8385m5.2m/s-23.3°C5.9%356.9hPa0V00:00:0000:00:0000:00:00
PU1XMG-162026-09-04 11:58:28-22.76079-43.0349064°133km/h8359m6.6m/s-23.2°C5.8%358.1hPa0V00:00:0000:00:0000:00:00
PU1XMG-162026-09-04 11:58:23-22.76158-43.0365562°139km/h8335m5.0m/s-23.1°C5.7%359.3hPa0V00:00:0000:00:0000:00:00
PU1XMG-162026-09-04 11:58:18-22.76239-43.0382265°135km/h8315m3.7m/s-23.0°C5.8%360.3hPa0V00:00:0000:00:0000:00:00
PU1XMG-162026-09-04 11:58:13-22.76316-43.0398664°133km/h8295m6.0m/s-22.9°C6.0%361.3hPa0V00:00:0000:00:0000:00:00
PU1XMG-162026-09-04 11:58:07-22.76403-43.0417866°130km/h8266m5.5m/s-22.8°C6.0%362.8hPa0V00:00:0000:00:0000:00:00
PU1XMG-162026-09-04 11:58:02-22.76473-43.0434067°135km/h8241m4.1m/s-22.6°C5.8%364.0hPa0V00:00:0000:00:0000:00:00
PU1XMG-162026-09-04 11:57:57-22.76544-43.0450668°126km/h8221m3.6m/s-22.4°C5.8%365.0hPa0V00:00:0000:00:0000:00:00
PU1XMG-162026-09-04 11:57:52-22.76608-43.0466667°130km/h8196m5.5m/s-22.2°C5.6%366.2hPa0V00:00:0000:00:0000:00:00
PU1XMG-162026-09-04 11:57:46-22.76689-43.0485666°128km/h8162m5.7m/s-21.9°C5.4%367.9hPa0V00:00:0000:00:0000:00:00
PU1XMG-162026-09-04 11:57:41-22.76752-43.0501970°126km/h8140m3.8m/s-21.7°C5.3%368.9hPa0V00:00:0000:00:0000:00:00
PU1XMG-162026-09-04 11:57:36-22.76814-43.0517867°124km/h8117m6.6m/s-21.5°C5.2%370.1hPa0V00:00:0000:00:0000:00:00
PU1XMG-162026-09-04 11:57:25-22.76962-43.0553467°131km/h8069m5.1m/s-21.0°C5.1%372.5hPa0V00:00:0000:00:0000:00:00
PU1XMG-162026-09-04 11:57:20-22.77027-43.0569368°124km/h8046m5.9m/s-20.8°C5.0%373.7hPa0V00:00:0000:00:0000:00:00
PU1XMG-162026-09-04 11:57:16-22.77089-43.0585269°130km/h8017m2.7m/s-20.6°C5.0%375.0hPa0V00:00:0000:00:0000:00:00
PU1XMG-162026-09-04 11:57:09-22.77172-43.0604566°130km/h7989m5.9m/s-20.4°C5.0%376.4hPa0V00:00:0000:00:0000:00:00
PU1XMG-162026-09-04 11:57:03-22.77252-43.0623667°126km/h7963m5.0m/s-20.3°C5.0%377.8hPa0V00:00:0000:00:0000:00:00
PU1XMG-162026-09-04 11:56:58-22.77322-43.0639064°124km/h7937m6.2m/s-20.1°C5.1%379.1hPa0V00:00:0000:00:0000:00:00
PU1XMG-162026-09-04 11:56:53-22.77400-43.0657566°122km/h7911m3.5m/s-20.0°C5.1%380.5hPa0V00:00:0000:00:0000:00:00
PU1XMG-162026-09-04 11:56:46-22.77493-43.0675660°122km/h7884m4.6m/s-19.9°C5.1%381.8hPa0V00:00:0000:00:0000:00:00
PU1XMG-162026-09-04 11:56:40-22.77582-43.0693364°122km/h7857m4.3m/s-19.7°C4.9%383.2hPa0V00:00:0000:00:0000:00:00
PU1XMG-162026-09-04 11:56:35-22.77655-43.0708562°128km/h7835m5.9m/s-19.6°C4.6%384.3hPa0V00:00:0000:00:0000:00:00
PU1XMG-162026-09-04 11:56:30-22.77750-43.0726962°130km/h7802m7.3m/s-19.3°C4.5%386.0hPa0V00:00:0000:00:0000:00:00
PU1XMG-162026-09-04 11:56:24-22.77823-43.0742464°128km/h7773m7.0m/s-19.1°C4.4%387.5hPa0V00:00:0000:00:0000:00:00
PU1XMG-162026-09-04 11:56:13-22.77986-43.0775061°122km/h7716m7.4m/s-18.7°C4.4%390.4hPa0V00:00:0000:00:0000:00:00
PU1XMG-162026-09-04 11:56:07-22.78073-43.0793164°122km/h7685m5.3m/s-18.6°C4.7%391.9hPa0V00:00:0000:00:0000:00:00
PU1XMG-162026-09-04 11:56:01-22.78161-43.0810162°119km/h7657m4.0m/s-18.5°C4.8%393.5hPa0V00:00:0000:00:0000:00:00
PU1XMG-162026-09-04 11:55:56-22.78239-43.0824762°128km/h7631m4.7m/s-18.7°C5.5%394.9hPa0V00:00:0000:00:0000:00:00
PU1XMG-162026-09-04 11:55:50-22.78336-43.0841758°117km/h7598m7.0m/s-18.9°C6.2%396.7hPa0V00:00:0000:00:0000:00:00
PU1XMG-162026-09-04 11:55:45-22.78414-43.0854860°110km/h7564m5.6m/s-19.0°C6.5%398.4hPa0V00:00:0000:00:0000:00:00
PU1XMG-162026-09-04 11:55:40-22.78501-43.0870358°108km/h7533m5.8m/s-19.1°C6.7%400.1hPa0V00:00:0000:00:0000:00:00
PU1XMG-162026-09-04 11:55:34-22.78566-43.0883166°108km/h7505m6.0m/s-19.6°C8.2%401.6hPa0V00:00:0000:00:0000:00:00
PU1XMG-162026-09-04 11:55:28-22.78644-43.0897860°99km/h7474m7.2m/s-20.0°C9.9%403.3hPa0V00:00:0000:00:0000:00:00
PU1XMG-162026-09-04 11:55:23-22.78707-43.0909161°93km/h7448m3.8m/s-20.0°C10.2%404.9hPa0V00:00:0000:00:0000:00:00
PU1XMG-162026-09-04 11:55:18-22.78765-43.0919960°84km/h7423m3.7m/s-19.8°C10.5%406.2hPa0V00:00:0000:00:0000:00:00
PU1XMG-162026-09-04 11:55:12-22.78832-43.0931658°89km/h7394m7.0m/s-19.9°C13.1%407.7hPa0V00:00:0000:00:0000:00:00
PU1XMG-162026-09-04 11:55:01-22.78958-43.0954362°86km/h7336m8.5m/s-20.1°C13.6%410.9hPa0V00:00:0000:00:0000:00:00
PU1XMG-162026-09-04 11:54:55-22.79018-43.0966564°84km/h7305m4.6m/s-19.9°C14.1%412.7hPa0V00:00:0000:00:0000:00:00
PU1XMG-162026-09-04 11:54:50-22.79068-43.0977064°89km/h7283m4.9m/s-19.8°C14.1%413.9hPa0V00:00:0000:00:0000:00:00
PU1XMG-162026-09-04 11:54:45-22.79117-43.0989973°86km/h7254m4.3m/s-19.7°C14.9%415.5hPa0V00:00:0000:00:0000:00:00
PU1XMG-162026-09-04 11:54:39-22.79151-43.1000371°80km/h7234m6.2m/s-19.7°C15.8%416.8hPa0V00:00:0000:00:0000:00:00
PU1XMG-162026-09-04 11:54:33-22.79203-43.1013071°88km/h7199m8.1m/s-19.6°C16.6%418.7hPa0V00:00:0000:00:0000:00:00
PU1XMG-162026-09-04 11:54:28-22.79235-43.1023872°84km/h7160m7.9m/s-19.3°C16.9%420.8hPa0V00:00:0000:00:0000:00:00
PU1XMG-162026-09-04 11:54:22-22.79275-43.1037473°89km/h7126m5.3m/s-19.2°C18.2%422.8hPa0V00:00:0000:00:0000:00:00
PU1XMG-162026-09-04 11:54:16-22.79315-43.1050872°86km/h7096m5.8m/s-19.1°C19.7%424.6hPa0V00:00:0000:00:0000:00:00
PU1XMG-162026-09-04 11:54:11-22.79351-43.1063071°99km/h7070m7.4m/s-19.2°C19.9%426.0hPa0V00:00:0000:00:0000:00:00
PU1XMG-162026-09-04 11:54:05-22.79392-43.1077175°88km/h7034m6.1m/s-19.0°C20.0%428.0hPa0V00:00:0000:00:0000:00:00
PU1XMG-162026-09-04 11:53:59-22.79424-43.1091876°82km/h6994m6.8m/s-18.7°C18.7%430.2hPa0V00:00:0000:00:0000:00:00
PU1XMG-162026-09-04 11:53:54-22.79451-43.1103382°84km/h6957m7.9m/s-18.3°C18.2%432.4hPa0V00:00:0000:00:0000:00:00
PU1XMG-162026-09-04 11:53:49-22.79467-43.1114779°89km/h6927m6.1m/s-18.1°C18.2%434.2hPa0V00:00:0000:00:0000:00:00
PU1XMG-162026-09-04 11:53:43-22.79494-43.1128779°89km/h6892m4.0m/s-17.8°C19.2%436.3hPa0V00:00:0000:00:0000:00:00
PU1XMG-162026-09-04 11:53:38-22.79513-43.1143182°89km/h6862m3.1m/s-17.6°C21.0%438.1hPa0V00:00:0000:00:0000:00:00
PU1XMG-162026-09-04 11:53:31-22.79538-43.1158080°95km/h6828m4.3m/s-17.4°C20.7%439.9hPa0V00:00:0000:00:0000:00:00
PU1XMG-162026-09-04 11:53:26-22.79557-43.1170478°86km/h6805m6.8m/s-17.3°C20.6%441.3hPa0V00:00:0000:00:0000:00:00
PU1XMG-162026-09-04 11:53:20-22.79594-43.1183476°93km/h6779m4.8m/s-17.0°C20.5%442.9hPa0V00:00:0000:00:0000:00:00
PU1XMG-162026-09-04 11:53:15-22.79608-43.1195990°80km/h6748m4.7m/s-16.8°C20.5%444.8hPa0V00:00:0000:00:0000:00:00
PU1XMG-162026-09-04 11:53:10-22.79621-43.1207080°84km/h6714m8.1m/s-16.6°C20.0%446.7hPa0V00:00:0000:00:0000:00:00
PU1XMG-162026-09-04 11:53:04-22.79645-43.1220279°80km/h6678m5.4m/s-16.2°C19.5%448.7hPa0V00:00:0000:00:0000:00:00
PU1XMG-162026-09-04 11:52:58-22.79669-43.1233982°84km/h6648m4.8m/s-16.0°C18.7%450.5hPa0V00:00:0000:00:0000:00:00
PU1XMG-162026-09-04 11:52:53-22.79682-43.1244781°73km/h6621m6.4m/s-15.7°C18.0%452.1hPa0V00:00:0000:00:0000:00:00
PU1XMG-162026-09-04 11:52:47-22.79708-43.1257073°82km/h6588m6.0m/s-15.6°C19.7%454.0hPa0V00:00:0000:00:0000:00:00
PU1XMG-162026-09-04 11:52:42-22.79736-43.1268384°84km/h6559m5.7m/s-15.4°C19.5%455.8hPa0V00:00:0000:00:0000:00:00
PU1XMG-162026-09-04 11:52:36-22.79754-43.1282080°78km/h6521m6.8m/s-15.1°C19.0%458.1hPa0V00:00:0000:00:0000:00:00
PU1XMG-162026-09-04 11:52:32-22.79773-43.1292381°80km/h6495m3.9m/s-14.9°C18.9%459.6hPa0V00:00:0000:00:0000:00:00
PU1XMG-162026-09-04 11:52:25-22.79792-43.1305384°75km/h6466m4.0m/s-14.6°C19.2%461.4hPa0V00:00:0000:00:0000:00:00
PU1XMG-162026-09-04 11:52:20-22.79803-43.1315180°75km/h6443m5.0m/s-14.5°C19.0%462.9hPa0V00:00:0000:00:0000:00:00
PU1XMG-162026-09-04 11:52:15-22.79823-43.1325780°78km/h6419m6.6m/s-14.3°C18.7%464.3hPa0V00:00:0000:00:0000:00:00
PU1XMG-162026-09-04 11:52:10-22.79838-43.1336682°78km/h6395m4.6m/s-14.1°C18.3%465.8hPa0V00:00:0000:00:0000:00:00
PU1XMG-162026-09-04 11:52:05-22.79856-43.1347283°78km/h6371m4.3m/s-14.0°C18.6%467.2hPa0V00:00:0000:00:0000:00:00
PU1XMG-162026-09-04 11:51:59-22.79863-43.1360286°73km/h6341m3.6m/s-13.7°C18.3%469.0hPa0V00:00:0000:00:0000:00:00
PU1XMG-162026-09-04 11:51:54-22.79882-43.1368979°66km/h6311m8.7m/s-13.6°C20.2%470.9hPa0V00:00:0000:00:0000:00:00
PU1XMG-162026-09-04 11:51:49-22.79901-43.1379778°86km/h6278m6.8m/s-13.5°C22.5%472.8hPa0V00:00:0000:00:0000:00:00
PU1XMG-162026-09-04 11:51:43-22.79924-43.1393176°75km/h6240m5.6m/s-13.5°C26.1%475.2hPa0V00:00:0000:00:0000:00:00
PU1XMG-162026-09-04 11:51:38-22.79949-43.1402178°71km/h6206m5.9m/s-13.5°C27.2%477.5hPa0V00:00:0000:00:0000:00:00
PU1XMG-162026-09-04 11:51:32-22.79973-43.1413475°69km/h6176m5.9m/s-13.3°C28.0%479.4hPa0V00:00:0000:00:0000:00:00
PU1XMG-162026-09-04 11:51:28-22.80000-43.1421975°58km/h6150m6.3m/s-13.1°C28.6%481.1hPa0V00:00:0000:00:0000:00:00
PU1XMG-162026-09-04 11:51:21-22.80013-43.1431981°69km/h6124m4.3m/s-12.9°C28.6%482.8hPa0V00:00:0000:00:0000:00:00
PU1XMG-162026-09-04 11:51:16-22.80038-43.1440374°57km/h6095m6.3m/s-12.6°C28.3%484.8hPa0V00:00:0000:00:0000:00:00
PU1XMG-162026-09-04 11:51:11-22.80064-43.1450574°66km/h6056m4.5m/s-12.2°C27.8%487.0hPa0V00:00:0000:00:0000:00:00
PU1XMG-162026-09-04 11:51:06-22.80086-43.1459478°69km/h6030m6.2m/s-12.0°C27.3%488.7hPa0V00:00:0000:00:0000:00:00
PU1XMG-162026-09-04 11:50:57-22.80110-43.1472681°57km/h5995m6.4m/s-11.6°C26.8%490.9hPa0V00:00:0000:00:0000:00:00
PU1XMG-162026-09-04 11:50:52-22.80131-43.1480773°64km/h5970m6.2m/s-11.4°C26.6%492.5hPa0V00:00:0000:00:0000:00:00
PU1XMG-162026-09-04 11:50:46-22.80159-43.1490682°62km/h5938m4.7m/s-11.1°C26.4%494.5hPa0V00:00:0000:00:0000:00:00
PU1XMG-162026-09-04 11:50:40-22.80171-43.1501278°58km/h5910m6.0m/s-10.8°C26.3%496.4hPa0V00:00:0000:00:0000:00:00
PU1XMG-162026-09-04 11:50:34-22.80201-43.1511786°75km/h5872m5.3m/s-10.5°C25.8%498.8hPa0V00:00:0000:00:0000:00:00
PU1XMG-162026-09-04 11:50:28-22.80217-43.1522369°55km/h5829m7.3m/s-10.1°C25.0%501.7hPa0V00:00:0000:00:0000:00:00
PU1XMG-162026-09-04 11:50:23-22.80246-43.1531978°62km/h5798m5.2m/s-9.7°C24.8%503.7hPa0V00:00:0000:00:0000:00:00
PU1XMG-162026-09-04 11:50:17-22.80258-43.1539589°62km/h5771m4.4m/s-9.5°C24.3%505.5hPa0V00:00:0000:00:0000:00:00
PU1XMG-162026-09-04 11:50:12-22.80275-43.1547562°62km/h5739m6.9m/s-9.2°C23.7%507.4hPa0V00:00:0000:00:0000:00:00
PU1XMG-162026-09-04 11:50:06-22.80309-43.1556978°55km/h5702m7.4m/s-8.9°C23.2%509.9hPa0V00:00:0000:00:0000:00:00
PU1XMG-162026-09-04 11:50:01-22.80333-43.1564471°64km/h5668m7.1m/s-8.6°C22.6%512.2hPa0V00:00:0000:00:0000:00:00
PU1XMG-162026-09-04 11:49:56-22.80351-43.1573681°62km/h5641m5.6m/s-8.3°C22.9%513.8hPa0V00:00:0000:00:0000:00:00
PU1XMG-162026-09-04 11:49:50-22.80375-43.1581971°60km/h5605m7.0m/s-8.0°C21.6%516.2hPa0V00:00:0000:00:0000:00:00
PU1XMG-162026-09-04 11:49:44-22.80402-43.1591071°51km/h5573m5.2m/s-7.7°C19.7%518.5hPa0V00:00:0000:00:0000:00:00
PU1XMG-162026-09-04 11:49:39-22.80423-43.1598277°60km/h5546m4.7m/s-7.5°C19.0%520.2hPa0V00:00:0000:00:0000:00:00
PU1XMG-162026-09-04 11:49:34-22.80437-43.1607178°66km/h5524m4.7m/s-7.3°C18.5%521.6hPa0V00:00:0000:00:0000:00:00
PU1XMG-162026-09-04 11:49:29-22.80464-43.1615171°64km/h5492m7.3m/s-7.1°C18.7%523.7hPa0V00:00:0000:00:0000:00:00
PU1XMG-162026-09-04 11:49:23-22.80497-43.1624764°60km/h5459m6.4m/s-7.0°C18.3%525.9hPa0V00:00:0000:00:0000:00:00
PU1XMG-162026-09-04 11:49:18-22.80519-43.1631979°51km/h5432m7.1m/s-6.9°C17.9%527.8hPa0V00:00:0000:00:0000:00:00
PU1XMG-162026-09-04 11:49:12-22.80532-43.1640573°46km/h5398m5.4m/s-6.6°C15.8%530.0hPa0V00:00:0000:00:0000:00:00
PU1XMG-162026-09-04 11:49:06-22.80553-43.1648479°49km/h5364m7.7m/s-6.3°C17.5%532.5hPa0V00:00:0000:00:0000:00:00
PU1XMG-162026-09-04 11:49:01-22.80580-43.1654865°47km/h5333m8.5m/s-6.1°C16.8%534.6hPa0V00:00:0000:00:0000:00:00
PU1XMG-162026-09-04 11:48:57-22.80593-43.1660777°49km/h5301m6.7m/s-5.9°C15.0%536.8hPa0V00:00:0000:00:0000:00:00
PU1XMG-162026-09-04 11:48:51-22.80621-43.1669081°58km/h5265m4.0m/s-5.6°C13.1%539.2hPa0V00:00:0000:00:0000:00:00
PU1XMG-162026-09-04 11:48:45-22.80634-43.1677178°51km/h5234m5.8m/s-5.5°C12.9%541.3hPa0V00:00:0000:00:0000:00:00
PU1XMG-162026-09-04 11:48:39-22.80647-43.1685778°62km/h5197m4.5m/s-5.3°C12.8%543.8hPa0V00:00:0000:00:0000:00:00
PU1XMG-162026-09-04 11:48:34-22.80668-43.1694271°66km/h5171m5.8m/s-5.1°C12.7%545.6hPa0V00:00:0000:00:0000:00:00
PU1XMG-162026-09-04 11:48:29-22.80694-43.1701783°57km/h5142m6.9m/s-4.9°C12.5%547.6hPa0V00:00:0000:00:0000:00:00
PU1XMG-162026-09-04 11:48:23-22.80716-43.1710375°55km/h5098m9.8m/s-4.5°C12.3%550.5hPa0V00:00:0000:00:0000:00:00
PU1XMG-162026-09-04 11:48:17-22.80738-43.1718877°58km/h5062m3.7m/s-4.2°C12.3%553.1hPa0V00:00:0000:00:0000:00:00
PU1XMG-162026-09-04 11:48:11-22.80768-43.1728265°64km/h5033m3.5m/s-4.1°C12.6%555.0hPa0V00:00:0000:00:0000:00:00
PU1XMG-162026-09-04 11:48:06-22.80803-43.1735573°55km/h5012m5.3m/s-4.0°C13.2%556.5hPa0V00:00:0000:00:0000:00:00
PU1XMG-162026-09-04 11:48:00-22.80822-43.1744471°53km/h4981m5.7m/s-3.8°C13.3%558.9hPa0V00:00:0000:00:0000:00:00
PU1XMG-162026-09-04 11:47:55-22.80841-43.1751575°58km/h4956m4.2m/s-3.6°C13.1%560.6hPa0V00:00:0000:00:0000:00:00
PU1XMG-162026-09-04 11:47:49-22.80869-43.1759575°51km/h4923m4.6m/s-3.4°C13.9%563.1hPa0V00:00:0000:00:0000:00:00
PU1XMG-162026-09-04 11:47:44-22.80890-43.1766967°66km/h4898m5.4m/s-3.2°C14.3%564.7hPa0V00:00:0000:00:0000:00:00
PU1XMG-162026-09-04 11:47:38-22.80927-43.1776771°55km/h4863m5.6m/s-2.9°C14.0%567.3hPa0V00:00:0000:00:0000:00:00
PU1XMG-162026-09-04 11:47:33-22.80960-43.1784265°64km/h4838m4.6m/s-2.7°C13.7%569.1hPa0V00:00:0000:00:0000:00:00
PU1XMG-162026-09-04 11:47:27-22.80991-43.1792763°60km/h4807m5.5m/s-2.5°C13.6%571.3hPa0V00:00:0000:00:0000:00:00
PU1XMG-162026-09-04 11:47:22-22.81030-43.1800572°66km/h4784m4.5m/s-2.3°C14.3%573.0hPa0V00:00:0000:00:0000:00:00
PU1XMG-162026-09-04 11:47:17-22.81047-43.1807870°53km/h4756m6.5m/s-2.1°C14.1%575.0hPa0V00:00:0000:00:0000:00:00
PU1XMG-162026-09-04 11:47:12-22.81078-43.1814570°47km/h4727m4.8m/s-1.8°C14.1%577.1hPa0V00:00:0000:00:0000:00:00
PU1XMG-162026-09-04 11:47:06-22.81107-43.1823862°64km/h4692m4.3m/s-1.6°C14.0%579.7hPa0V00:00:0000:00:0000:00:00
PU1XMG-162026-09-04 11:47:00-22.81135-43.1832778°53km/h4653m5.9m/s-1.3°C14.3%582.5hPa0V00:00:0000:00:0000:00:00
PU1XMG-162026-09-04 11:46:55-22.81146-43.1838785°47km/h4630m4.2m/s-1.1°C14.2%584.2hPa0V00:00:0000:00:0000:00:00
PU1XMG-162026-09-04 11:46:50-22.81163-43.1846268°60km/h4605m3.8m/s-0.9°C14.0%586.0hPa0V00:00:0000:00:0000:00:00
PU1XMG-162026-09-04 11:46:44-22.81187-43.1853668°49km/h4570m3.8m/s-0.6°C13.5%588.6hPa0V00:00:0000:00:0000:00:00
PU1XMG-162026-09-04 11:46:38-22.81220-43.1862780°58km/h4541m4.3m/s-0.3°C13.4%590.9hPa0V00:00:0000:00:0000:00:00
PU1XMG-162026-09-04 11:46:34-22.81234-43.1869778°55km/h4506m9.2m/s-0.1°C13.4%593.3hPa0V00:00:0000:00:0000:00:00
PU1XMG-162026-09-04 11:46:28-22.81250-43.1879573°55km/h4466m6.5m/s0.2°C13.9%596.4hPa0V00:00:0000:00:0000:00:00
PU1XMG-162026-09-04 11:46:22-22.81267-43.1887093°60km/h4440m4.9m/s0.4°C14.0%598.3hPa0V00:00:0000:00:0000:00:00
PU1XMG-162026-09-04 11:46:17-22.81261-43.1894796°55km/h4414m6.6m/s0.4°C14.9%600.3hPa0V00:00:0000:00:0000:00:00
PU1XMG-162026-09-04 11:46:13-22.81267-43.1901273°47km/h4389m6.1m/s0.6°C15.1%602.2hPa0V00:00:0000:00:0000:00:00
PU1XMG-162026-09-04 11:46:07-22.81282-43.1908581°55km/h4360m9.3m/s0.7°C16.1%604.2hPa0V00:00:0000:00:0000:00:00
PU1XMG-162026-09-04 11:46:01-22.81294-43.1917572°55km/h4324m5.7m/s0.8°C17.4%606.9hPa0V00:00:0000:00:0000:00:00
PU1XMG-162026-09-04 11:45:57-22.81306-43.1924286°55km/h4295m6.7m/s1.0°C14.5%609.1hPa0V00:00:0000:00:0000:00:00
PU1XMG-162026-09-04 11:45:50-22.81310-43.1932393°53km/h4260m5.6m/s1.2°C13.2%611.6hPa0V00:00:0000:00:0000:00:00
PU1XMG-162026-09-04 11:45:44-22.81327-43.1940671°42km/h4228m4.5m/s1.5°C12.2%614.1hPa0V00:00:0000:00:0000:00:00
PU1XMG-162026-09-04 11:45:39-22.81338-43.1946897°47km/h4200m4.0m/s1.5°C11.6%616.2hPa0V00:00:0000:00:0000:00:00
PU1XMG-162026-09-04 11:45:34-22.81340-43.1952371°40km/h4172m8.0m/s1.6°C12.5%618.2hPa0V00:00:0000:00:0000:00:00
PU1XMG-162026-09-04 11:45:29-22.81343-43.19589104°51km/h4144m7.1m/s1.7°C13.8%620.4hPa0V00:00:0000:00:0000:00:00
PU1XMG-162026-09-04 11:45:25-22.81334-43.1967294°49km/h4114m4.6m/s1.7°C0%0hPa0V00:00:0000:00:0000:00:00
PU1XMG-162026-09-04 11:45:17-22.81327-43.1973176°38km/h4082m5.2m/s1.9°C0%0hPa0V00:00:0000:00:0000:00:00
PU1XMG-162026-09-04 11:45:11-22.81340-43.19790100°35km/h4049m4.2m/s2.2°C0%0hPa0V00:00:0000:00:0000:00:00
PU1XMG-162026-09-04 11:45:06-22.81332-43.1984899°49km/h4022m8.7m/s2.4°C0%0hPa0V00:00:0000:00:0000:00:00
PU1XMG-162026-09-04 11:45:00-22.81323-43.1992179°46km/h3982m5.7m/s2.7°C0%0hPa0V00:00:0000:00:0000:00:00
PU1XMG-162026-09-04 11:44:54-22.81331-43.19982107°40km/h3946m7.1m/s3.0°C0%0hPa0V00:00:0000:00:0000:00:00
PU1XMG-162026-09-04 11:44:49-22.81320-43.2003596°31km/h3918m6.2m/s0°C0%0hPa0V00:00:0000:00:0000:00:00
PU1XMG-162026-09-04 11:44:43-22.81316-43.2010399°53km/h3885m6.5m/s0°C0%0hPa0V00:00:0000:00:0000:00:00
PU1XMG-162026-09-04 11:44:38-22.81324-43.2016986°33km/h3856m6.0m/s0°C0%0hPa0V00:00:0000:00:0000:00:00
PU1XMG-162026-09-04 11:43:47-22.81314-43.20711119°35km/h3559m6.5m/s6.4°C13.9%666.7hPa0V00:00:0000:00:0000:00:00
PU1XMG-162026-09-04 11:43:43-22.81303-43.2075780°31km/h3527m5.1m/s6.6°C14.0%669.2hPa0V00:00:0000:00:0000:00:00


GPX KML Map

© wettersonde.net (DO2JMG) - 2026  -  -